<?xml version="1.0" encoding="UTF-8" standalone="no" ?>
<gpx xmlns="http://www.topografix.com/GPX/1/1" xmlns:xsi="http://www.w3.org/2001/XMLSchema-instance" xsi:schemaLocation="http://www.topografix.com/GPX/1/1 http://www.topografix.com/GPX/1/1/gpx.xsd" version="1.1" creator="VisuGPX - https://www.visugpx.com">
  <metadata>
    <name>Pic Blanc du Galibier</name>
    <desc><![CDATA[Montee en A/R au Pic blanc du Galibier (face S.E) a partir du Lautaret.]]></desc>
  </metadata>
  <trk>
    <name><![CDATA[Pic-blanc-galibier]]></name>
    <trkseg>
      <trkpt lat="45.04282" lon="6.41718">
        <ele>2199.9</ele>
        <time>2013-05-05T05:28:33Z</time>
      </trkpt>
      <trkpt lat="45.04289" lon="6.41725">
        <ele>2200.5</ele>
        <time>2013-05-05T05:29:12Z</time>
      </trkpt>
      <trkpt lat="45.04297" lon="6.4173">
        <ele>2204.2</ele>
        <time>2013-05-05T05:29:27Z</time>
      </trkpt>
      <trkpt lat="45.04298" lon="6.41731">
        <ele>2204.6</ele>
        <time>2013-05-05T05:29:28Z</time>
      </trkpt>
      <trkpt lat="45.04305" lon="6.41723">
        <ele>2207.6</ele>
        <time>2013-05-05T05:32:04Z</time>
      </trkpt>
      <trkpt lat="45.04317" lon="6.41708">
        <ele>2209.1</ele>
        <time>2013-05-05T05:32:20Z</time>
      </trkpt>
      <trkpt lat="45.04324" lon="6.41702">
        <ele>2210</ele>
        <time>2013-05-05T05:32:28Z</time>
      </trkpt>
      <trkpt lat="45.04331" lon="6.41694">
        <ele>2212.4</ele>
        <time>2013-05-05T05:32:37Z</time>
      </trkpt>
      <trkpt lat="45.04338" lon="6.41687">
        <ele>2214</ele>
        <time>2013-05-05T05:32:46Z</time>
      </trkpt>
      <trkpt lat="45.04345" lon="6.4168">
        <ele>2214.6</ele>
        <time>2013-05-05T05:32:55Z</time>
      </trkpt>
      <trkpt lat="45.04352" lon="6.41672">
        <ele>2216.2</ele>
        <time>2013-05-05T05:33:03Z</time>
      </trkpt>
      <trkpt lat="45.04359" lon="6.41666">
        <ele>2217.4</ele>
        <time>2013-05-05T05:33:18Z</time>
      </trkpt>
      <trkpt lat="45.0436" lon="6.41665">
        <ele>2217.5</ele>
        <time>2013-05-05T05:33:19Z</time>
      </trkpt>
      <trkpt lat="45.04373" lon="6.41652">
        <ele>2219.1</ele>
        <time>2013-05-05T05:33:34Z</time>
      </trkpt>
      <trkpt lat="45.04382" lon="6.41648">
        <ele>2220.9</ele>
        <time>2013-05-05T05:33:43Z</time>
      </trkpt>
      <trkpt lat="45.04389" lon="6.41643">
        <ele>2220.4</ele>
        <time>2013-05-05T05:33:52Z</time>
      </trkpt>
      <trkpt lat="45.04396" lon="6.41637">
        <ele>2222.5</ele>
        <time>2013-05-05T05:34:17Z</time>
      </trkpt>
      <trkpt lat="45.04403" lon="6.4163">
        <ele>2224.2</ele>
        <time>2013-05-05T05:34:24Z</time>
      </trkpt>
      <trkpt lat="45.04404" lon="6.4163">
        <ele>2224.3</ele>
        <time>2013-05-05T05:34:25Z</time>
      </trkpt>
      <trkpt lat="45.04417" lon="6.41617">
        <ele>2224.8</ele>
        <time>2013-05-05T05:34:57Z</time>
      </trkpt>
      <trkpt lat="45.04426" lon="6.41618">
        <ele>2226</ele>
        <time>2013-05-05T05:35:32Z</time>
      </trkpt>
      <trkpt lat="45.04427" lon="6.41618">
        <ele>2225.9</ele>
        <time>2013-05-05T05:35:33Z</time>
      </trkpt>
      <trkpt lat="45.04442" lon="6.4161">
        <ele>2225.4</ele>
        <time>2013-05-05T05:35:46Z</time>
      </trkpt>
      <trkpt lat="45.04449" lon="6.41606">
        <ele>2227.3</ele>
        <time>2013-05-05T05:35:53Z</time>
      </trkpt>
      <trkpt lat="45.04458" lon="6.41604">
        <ele>2227.4</ele>
        <time>2013-05-05T05:36:02Z</time>
      </trkpt>
      <trkpt lat="45.04465" lon="6.41604">
        <ele>2228.3</ele>
        <time>2013-05-05T05:36:08Z</time>
      </trkpt>
      <trkpt lat="45.04474" lon="6.41605">
        <ele>2227.2</ele>
        <time>2013-05-05T05:36:14Z</time>
      </trkpt>
      <trkpt lat="45.04482" lon="6.41607">
        <ele>2228.5</ele>
        <time>2013-05-05T05:36:20Z</time>
      </trkpt>
      <trkpt lat="45.0449" lon="6.41612">
        <ele>2229.7</ele>
        <time>2013-05-05T05:36:28Z</time>
      </trkpt>
      <trkpt lat="45.04499" lon="6.41613">
        <ele>2230.4</ele>
        <time>2013-05-05T05:36:36Z</time>
      </trkpt>
      <trkpt lat="45.045" lon="6.41613">
        <ele>2230.6</ele>
        <time>2013-05-05T05:36:37Z</time>
      </trkpt>
      <trkpt lat="45.04516" lon="6.41614">
        <ele>2231.3</ele>
        <time>2013-05-05T05:36:55Z</time>
      </trkpt>
      <trkpt lat="45.04525" lon="6.4161">
        <ele>2232.2</ele>
        <time>2013-05-05T05:37:21Z</time>
      </trkpt>
      <trkpt lat="45.04533" lon="6.41606">
        <ele>2234.3</ele>
        <time>2013-05-05T05:37:43Z</time>
      </trkpt>
      <trkpt lat="45.04533" lon="6.41606">
        <ele>2234.4</ele>
        <time>2013-05-05T05:37:44Z</time>
      </trkpt>
      <trkpt lat="45.04549" lon="6.41613">
        <ele>2235.8</ele>
        <time>2013-05-05T05:38:04Z</time>
      </trkpt>
      <trkpt lat="45.04556" lon="6.4162">
        <ele>2237.7</ele>
        <time>2013-05-05T05:38:13Z</time>
      </trkpt>
      <trkpt lat="45.04562" lon="6.41628">
        <ele>2237.8</ele>
        <time>2013-05-05T05:38:24Z</time>
      </trkpt>
      <trkpt lat="45.04568" lon="6.41635">
        <ele>2239.6</ele>
        <time>2013-05-05T05:38:38Z</time>
      </trkpt>
      <trkpt lat="45.04573" lon="6.41645">
        <ele>2241.9</ele>
        <time>2013-05-05T05:38:52Z</time>
      </trkpt>
      <trkpt lat="45.04573" lon="6.41646">
        <ele>2242.2</ele>
        <time>2013-05-05T05:38:53Z</time>
      </trkpt>
      <trkpt lat="45.04584" lon="6.41662">
        <ele>2244.6</ele>
        <time>2013-05-05T05:39:16Z</time>
      </trkpt>
      <trkpt lat="45.04589" lon="6.41672">
        <ele>2246.1</ele>
        <time>2013-05-05T05:39:27Z</time>
      </trkpt>
      <trkpt lat="45.04595" lon="6.4168">
        <ele>2247.9</ele>
        <time>2013-05-05T05:39:52Z</time>
      </trkpt>
      <trkpt lat="45.04603" lon="6.41674">
        <ele>2251.2</ele>
        <time>2013-05-05T05:40:06Z</time>
      </trkpt>
      <trkpt lat="45.04603" lon="6.41673">
        <ele>2251.4</ele>
        <time>2013-05-05T05:40:07Z</time>
      </trkpt>
      <trkpt lat="45.04615" lon="6.41673">
        <ele>2255.1</ele>
        <time>2013-05-05T05:40:27Z</time>
      </trkpt>
      <trkpt lat="45.04621" lon="6.41682">
        <ele>2256.5</ele>
        <time>2013-05-05T05:40:37Z</time>
      </trkpt>
      <trkpt lat="45.04628" lon="6.41689">
        <ele>2258.3</ele>
        <time>2013-05-05T05:40:49Z</time>
      </trkpt>
      <trkpt lat="45.04635" lon="6.41696">
        <ele>2260.6</ele>
        <time>2013-05-05T05:41:01Z</time>
      </trkpt>
      <trkpt lat="45.04641" lon="6.41687">
        <ele>2264.9</ele>
        <time>2013-05-05T05:41:22Z</time>
      </trkpt>
      <trkpt lat="45.04642" lon="6.41686">
        <ele>2265.3</ele>
        <time>2013-05-05T05:41:23Z</time>
      </trkpt>
      <trkpt lat="45.04651" lon="6.4168">
        <ele>2269.6</ele>
        <time>2013-05-05T05:41:53Z</time>
      </trkpt>
      <trkpt lat="45.04657" lon="6.41689">
        <ele>2271</ele>
        <time>2013-05-05T05:42:06Z</time>
      </trkpt>
      <trkpt lat="45.04664" lon="6.41694">
        <ele>2273.3</ele>
        <time>2013-05-05T05:42:20Z</time>
      </trkpt>
      <trkpt lat="45.04666" lon="6.41683">
        <ele>2276.1</ele>
        <time>2013-05-05T05:42:42Z</time>
      </trkpt>
      <trkpt lat="45.04666" lon="6.41681">
        <ele>2276.4</ele>
        <time>2013-05-05T05:42:43Z</time>
      </trkpt>
      <trkpt lat="45.04682" lon="6.41683">
        <ele>2282</ele>
        <time>2013-05-05T05:43:13Z</time>
      </trkpt>
      <trkpt lat="45.0469" lon="6.41689">
        <ele>2283.3</ele>
        <time>2013-05-05T05:43:25Z</time>
      </trkpt>
      <trkpt lat="45.04697" lon="6.41696">
        <ele>2286.3</ele>
        <time>2013-05-05T05:43:38Z</time>
      </trkpt>
      <trkpt lat="45.04705" lon="6.417">
        <ele>2289.9</ele>
        <time>2013-05-05T05:43:56Z</time>
      </trkpt>
      <trkpt lat="45.04705" lon="6.417">
        <ele>2289.8</ele>
        <time>2013-05-05T05:43:57Z</time>
      </trkpt>
      <trkpt lat="45.04722" lon="6.41707">
        <ele>2293.9</ele>
        <time>2013-05-05T05:44:30Z</time>
      </trkpt>
      <trkpt lat="45.04729" lon="6.41715">
        <ele>2297.3</ele>
        <time>2013-05-05T05:44:44Z</time>
      </trkpt>
      <trkpt lat="45.04736" lon="6.41722">
        <ele>2300.2</ele>
        <time>2013-05-05T05:44:56Z</time>
      </trkpt>
      <trkpt lat="45.04743" lon="6.41728">
        <ele>2301.9</ele>
        <time>2013-05-05T05:45:09Z</time>
      </trkpt>
      <trkpt lat="45.04744" lon="6.41729">
        <ele>2301.9</ele>
        <time>2013-05-05T05:45:10Z</time>
      </trkpt>
      <trkpt lat="45.04758" lon="6.41739">
        <ele>2306.1</ele>
        <time>2013-05-05T05:45:34Z</time>
      </trkpt>
      <trkpt lat="45.04765" lon="6.41746">
        <ele>2308.6</ele>
        <time>2013-05-05T05:45:46Z</time>
      </trkpt>
      <trkpt lat="45.04774" lon="6.41744">
        <ele>2313.4</ele>
        <time>2013-05-05T05:46:13Z</time>
      </trkpt>
      <trkpt lat="45.04774" lon="6.41743">
        <ele>2313.6</ele>
        <time>2013-05-05T05:46:14Z</time>
      </trkpt>
      <trkpt lat="45.04777" lon="6.41721">
        <ele>2318</ele>
        <time>2013-05-05T05:46:39Z</time>
      </trkpt>
      <trkpt lat="45.04777" lon="6.41709">
        <ele>2319.5</ele>
        <time>2013-05-05T05:46:50Z</time>
      </trkpt>
      <trkpt lat="45.04786" lon="6.41707">
        <ele>2324.1</ele>
        <time>2013-05-05T05:47:09Z</time>
      </trkpt>
      <trkpt lat="45.04793" lon="6.41701">
        <ele>2327.2</ele>
        <time>2013-05-05T05:47:32Z</time>
      </trkpt>
      <trkpt lat="45.04793" lon="6.417">
        <ele>2327.4</ele>
        <time>2013-05-05T05:47:33Z</time>
      </trkpt>
      <trkpt lat="45.04797" lon="6.41677">
        <ele>2330</ele>
        <time>2013-05-05T05:47:57Z</time>
      </trkpt>
      <trkpt lat="45.048" lon="6.41666">
        <ele>2332.4</ele>
        <time>2013-05-05T05:48:10Z</time>
      </trkpt>
      <trkpt lat="45.04802" lon="6.41655">
        <ele>2334.2</ele>
        <time>2013-05-05T05:48:22Z</time>
      </trkpt>
      <trkpt lat="45.04805" lon="6.41643">
        <ele>2336.7</ele>
        <time>2013-05-05T05:48:36Z</time>
      </trkpt>
      <trkpt lat="45.04806" lon="6.41643">
        <ele>2336.7</ele>
        <time>2013-05-05T05:48:37Z</time>
      </trkpt>
      <trkpt lat="45.04822" lon="6.4165">
        <ele>2342.9</ele>
        <time>2013-05-05T05:49:04Z</time>
      </trkpt>
      <trkpt lat="45.04828" lon="6.41641">
        <ele>2346.6</ele>
        <time>2013-05-05T05:49:28Z</time>
      </trkpt>
      <trkpt lat="45.04831" lon="6.4163">
        <ele>2347.7</ele>
        <time>2013-05-05T05:49:41Z</time>
      </trkpt>
      <trkpt lat="45.04831" lon="6.41629">
        <ele>2347.8</ele>
        <time>2013-05-05T05:49:42Z</time>
      </trkpt>
      <trkpt lat="45.04829" lon="6.41617">
        <ele>2349.3</ele>
        <time>2013-05-05T05:51:08Z</time>
      </trkpt>
      <trkpt lat="45.04836" lon="6.41597">
        <ele>2350.6</ele>
        <time>2013-05-05T05:51:30Z</time>
      </trkpt>
      <trkpt lat="45.04842" lon="6.41588">
        <ele>2352.7</ele>
        <time>2013-05-05T05:51:41Z</time>
      </trkpt>
      <trkpt lat="45.04847" lon="6.41578">
        <ele>2353</ele>
        <time>2013-05-05T05:51:51Z</time>
      </trkpt>
      <trkpt lat="45.04852" lon="6.41569">
        <ele>2352.5</ele>
        <time>2013-05-05T05:52:00Z</time>
      </trkpt>
      <trkpt lat="45.04857" lon="6.41558">
        <ele>2353.2</ele>
        <time>2013-05-05T05:52:09Z</time>
      </trkpt>
      <trkpt lat="45.04857" lon="6.41557">
        <ele>2353.3</ele>
        <time>2013-05-05T05:52:10Z</time>
      </trkpt>
      <trkpt lat="45.04869" lon="6.4154">
        <ele>2355.3</ele>
        <time>2013-05-05T05:52:44Z</time>
      </trkpt>
      <trkpt lat="45.04876" lon="6.41532">
        <ele>2358.3</ele>
        <time>2013-05-05T05:52:58Z</time>
      </trkpt>
      <trkpt lat="45.04878" lon="6.41521">
        <ele>2359.5</ele>
        <time>2013-05-05T05:53:10Z</time>
      </trkpt>
      <trkpt lat="45.04878" lon="6.4152">
        <ele>2359.2</ele>
        <time>2013-05-05T05:53:11Z</time>
      </trkpt>
      <trkpt lat="45.04893" lon="6.4152">
        <ele>2364.6</ele>
        <time>2013-05-05T05:54:15Z</time>
      </trkpt>
      <trkpt lat="45.04894" lon="6.41521">
        <ele>2364.9</ele>
        <time>2013-05-05T05:54:16Z</time>
      </trkpt>
      <trkpt lat="45.04902" lon="6.41516">
        <ele>2370.2</ele>
        <time>2013-05-05T05:54:46Z</time>
      </trkpt>
      <trkpt lat="45.04902" lon="6.41504">
        <ele>2372.2</ele>
        <time>2013-05-05T05:54:57Z</time>
      </trkpt>
      <trkpt lat="45.04902" lon="6.41492">
        <ele>2374.6</ele>
        <time>2013-05-05T05:55:09Z</time>
      </trkpt>
      <trkpt lat="45.04903" lon="6.4148">
        <ele>2374.9</ele>
        <time>2013-05-05T05:55:20Z</time>
      </trkpt>
      <trkpt lat="45.04903" lon="6.41479">
        <ele>2374.7</ele>
        <time>2013-05-05T05:55:21Z</time>
      </trkpt>
      <trkpt lat="45.04907" lon="6.41457">
        <ele>2378.8</ele>
        <time>2013-05-05T05:55:44Z</time>
      </trkpt>
      <trkpt lat="45.04909" lon="6.41445">
        <ele>2379.4</ele>
        <time>2013-05-05T05:55:55Z</time>
      </trkpt>
      <trkpt lat="45.04912" lon="6.41434">
        <ele>2379.8</ele>
        <time>2013-05-05T05:56:08Z</time>
      </trkpt>
      <trkpt lat="45.04914" lon="6.41422">
        <ele>2381.2</ele>
        <time>2013-05-05T05:56:20Z</time>
      </trkpt>
      <trkpt lat="45.04916" lon="6.4141">
        <ele>2381.7</ele>
        <time>2013-05-05T05:56:31Z</time>
      </trkpt>
      <trkpt lat="45.04916" lon="6.41409">
        <ele>2381.4</ele>
        <time>2013-05-05T05:56:32Z</time>
      </trkpt>
      <trkpt lat="45.04921" lon="6.41388">
        <ele>2384.8</ele>
        <time>2013-05-05T05:56:57Z</time>
      </trkpt>
      <trkpt lat="45.04927" lon="6.41378">
        <ele>2385.8</ele>
        <time>2013-05-05T05:57:12Z</time>
      </trkpt>
      <trkpt lat="45.04934" lon="6.4137">
        <ele>2386.6</ele>
        <time>2013-05-05T05:57:27Z</time>
      </trkpt>
      <trkpt lat="45.04941" lon="6.41365">
        <ele>2388.5</ele>
        <time>2013-05-05T05:57:44Z</time>
      </trkpt>
      <trkpt lat="45.04942" lon="6.41365">
        <ele>2388.9</ele>
        <time>2013-05-05T05:57:45Z</time>
      </trkpt>
      <trkpt lat="45.04957" lon="6.41354">
        <ele>2391.9</ele>
        <time>2013-05-05T05:58:15Z</time>
      </trkpt>
      <trkpt lat="45.04964" lon="6.41349">
        <ele>2393.4</ele>
        <time>2013-05-05T05:58:31Z</time>
      </trkpt>
      <trkpt lat="45.04973" lon="6.41346">
        <ele>2394.7</ele>
        <time>2013-05-05T05:58:45Z</time>
      </trkpt>
      <trkpt lat="45.04973" lon="6.41345">
        <ele>2394.8</ele>
        <time>2013-05-05T05:58:46Z</time>
      </trkpt>
      <trkpt lat="45.04989" lon="6.41339">
        <ele>2399.1</ele>
        <time>2013-05-05T05:59:26Z</time>
      </trkpt>
      <trkpt lat="45.04991" lon="6.41351">
        <ele>2400.8</ele>
        <time>2013-05-05T05:59:40Z</time>
      </trkpt>
      <trkpt lat="45.04994" lon="6.41362">
        <ele>2402.8</ele>
        <time>2013-05-05T05:59:52Z</time>
      </trkpt>
      <trkpt lat="45.04994" lon="6.41363">
        <ele>2403.1</ele>
        <time>2013-05-05T05:59:53Z</time>
      </trkpt>
      <trkpt lat="45.05007" lon="6.41369">
        <ele>2407.6</ele>
        <time>2013-05-05T06:00:22Z</time>
      </trkpt>
      <trkpt lat="45.05014" lon="6.41361">
        <ele>2408.7</ele>
        <time>2013-05-05T06:00:37Z</time>
      </trkpt>
      <trkpt lat="45.05022" lon="6.41357">
        <ele>2411.4</ele>
        <time>2013-05-05T06:01:02Z</time>
      </trkpt>
      <trkpt lat="45.05023" lon="6.41357">
        <ele>2411.1</ele>
        <time>2013-05-05T06:01:03Z</time>
      </trkpt>
      <trkpt lat="45.05039" lon="6.4136">
        <ele>2416.2</ele>
        <time>2013-05-05T06:01:28Z</time>
      </trkpt>
      <trkpt lat="45.05048" lon="6.41362">
        <ele>2418.3</ele>
        <time>2013-05-05T06:01:41Z</time>
      </trkpt>
      <trkpt lat="45.05056" lon="6.41366">
        <ele>2420.2</ele>
        <time>2013-05-05T06:01:55Z</time>
      </trkpt>
      <trkpt lat="45.05064" lon="6.41369">
        <ele>2421.5</ele>
        <time>2013-05-05T06:02:09Z</time>
      </trkpt>
      <trkpt lat="45.05064" lon="6.41369">
        <ele>2421.2</ele>
        <time>2013-05-05T06:02:10Z</time>
      </trkpt>
      <trkpt lat="45.05081" lon="6.41373">
        <ele>2424.7</ele>
        <time>2013-05-05T06:02:35Z</time>
      </trkpt>
      <trkpt lat="45.0509" lon="6.41376">
        <ele>2427</ele>
        <time>2013-05-05T06:02:48Z</time>
      </trkpt>
      <trkpt lat="45.05098" lon="6.41381">
        <ele>2429.2</ele>
        <time>2013-05-05T06:03:02Z</time>
      </trkpt>
      <trkpt lat="45.05107" lon="6.41378">
        <ele>2428</ele>
        <time>2013-05-05T06:04:10Z</time>
      </trkpt>
      <trkpt lat="45.05107" lon="6.41378">
        <ele>2428.1</ele>
        <time>2013-05-05T06:04:11Z</time>
      </trkpt>
      <trkpt lat="45.05114" lon="6.41369">
        <ele>2428.3</ele>
        <time>2013-05-05T06:06:44Z</time>
      </trkpt>
      <trkpt lat="45.05118" lon="6.4135">
        <ele>2427.2</ele>
        <time>2013-05-05T06:07:00Z</time>
      </trkpt>
      <trkpt lat="45.05113" lon="6.41342">
        <ele>2425.8</ele>
        <time>2013-05-05T06:07:08Z</time>
      </trkpt>
      <trkpt lat="45.05107" lon="6.41333">
        <ele>2424</ele>
        <time>2013-05-05T06:07:14Z</time>
      </trkpt>
      <trkpt lat="45.051" lon="6.41329">
        <ele>2422.4</ele>
        <time>2013-05-05T06:07:17Z</time>
      </trkpt>
      <trkpt lat="45.05092" lon="6.41325">
        <ele>2421.5</ele>
        <time>2013-05-05T06:07:20Z</time>
      </trkpt>
      <trkpt lat="45.05085" lon="6.41319">
        <ele>2414.2</ele>
        <time>2013-05-05T06:07:27Z</time>
      </trkpt>
      <trkpt lat="45.0508" lon="6.41308">
        <ele>2414.4</ele>
        <time>2013-05-05T06:07:38Z</time>
      </trkpt>
      <trkpt lat="45.05084" lon="6.41298">
        <ele>2419.9</ele>
        <time>2013-05-05T06:10:34Z</time>
      </trkpt>
      <trkpt lat="45.05084" lon="6.41296">
        <ele>2419.7</ele>
        <time>2013-05-05T06:10:35Z</time>
      </trkpt>
      <trkpt lat="45.05081" lon="6.41273">
        <ele>2418.6</ele>
        <time>2013-05-05T06:10:55Z</time>
      </trkpt>
      <trkpt lat="45.05081" lon="6.41261">
        <ele>2417</ele>
        <time>2013-05-05T06:11:04Z</time>
      </trkpt>
      <trkpt lat="45.05083" lon="6.41249">
        <ele>2416.4</ele>
        <time>2013-05-05T06:11:16Z</time>
      </trkpt>
      <trkpt lat="45.05087" lon="6.41239">
        <ele>2416.2</ele>
        <time>2013-05-05T06:11:25Z</time>
      </trkpt>
      <trkpt lat="45.0509" lon="6.41227">
        <ele>2416.3</ele>
        <time>2013-05-05T06:11:36Z</time>
      </trkpt>
      <trkpt lat="45.0509" lon="6.41226">
        <ele>2416.3</ele>
        <time>2013-05-05T06:11:37Z</time>
      </trkpt>
      <trkpt lat="45.05094" lon="6.41204">
        <ele>2417.5</ele>
        <time>2013-05-05T06:11:56Z</time>
      </trkpt>
      <trkpt lat="45.05096" lon="6.41192">
        <ele>2418.4</ele>
        <time>2013-05-05T06:12:07Z</time>
      </trkpt>
      <trkpt lat="45.05098" lon="6.41179">
        <ele>2419.5</ele>
        <time>2013-05-05T06:12:19Z</time>
      </trkpt>
      <trkpt lat="45.051" lon="6.41168">
        <ele>2420.8</ele>
        <time>2013-05-05T06:12:31Z</time>
      </trkpt>
      <trkpt lat="45.05104" lon="6.41157">
        <ele>2421.4</ele>
        <time>2013-05-05T06:12:43Z</time>
      </trkpt>
      <trkpt lat="45.05105" lon="6.41156">
        <ele>2422</ele>
        <time>2013-05-05T06:12:44Z</time>
      </trkpt>
      <trkpt lat="45.05112" lon="6.41135">
        <ele>2424.7</ele>
        <time>2013-05-05T06:13:09Z</time>
      </trkpt>
      <trkpt lat="45.05116" lon="6.41124">
        <ele>2424.4</ele>
        <time>2013-05-05T06:13:27Z</time>
      </trkpt>
      <trkpt lat="45.05119" lon="6.41113">
        <ele>2425.3</ele>
        <time>2013-05-05T06:13:40Z</time>
      </trkpt>
      <trkpt lat="45.05123" lon="6.41101">
        <ele>2425.9</ele>
        <time>2013-05-05T06:13:53Z</time>
      </trkpt>
      <trkpt lat="45.05123" lon="6.411">
        <ele>2426</ele>
        <time>2013-05-05T06:13:54Z</time>
      </trkpt>
      <trkpt lat="45.05128" lon="6.41078">
        <ele>2426.2</ele>
        <time>2013-05-05T06:14:19Z</time>
      </trkpt>
      <trkpt lat="45.0513" lon="6.41066">
        <ele>2427.5</ele>
        <time>2013-05-05T06:14:32Z</time>
      </trkpt>
      <trkpt lat="45.05132" lon="6.41054">
        <ele>2428.1</ele>
        <time>2013-05-05T06:14:47Z</time>
      </trkpt>
      <trkpt lat="45.05133" lon="6.41042">
        <ele>2429.1</ele>
        <time>2013-05-05T06:15:01Z</time>
      </trkpt>
      <trkpt lat="45.05133" lon="6.41041">
        <ele>2429.1</ele>
        <time>2013-05-05T06:15:02Z</time>
      </trkpt>
      <trkpt lat="45.05144" lon="6.41023">
        <ele>2431.1</ele>
        <time>2013-05-05T06:15:29Z</time>
      </trkpt>
      <trkpt lat="45.05148" lon="6.41012">
        <ele>2431.4</ele>
        <time>2013-05-05T06:15:43Z</time>
      </trkpt>
      <trkpt lat="45.05149" lon="6.41">
        <ele>2432.4</ele>
        <time>2013-05-05T06:15:56Z</time>
      </trkpt>
      <trkpt lat="45.05151" lon="6.40988">
        <ele>2433</ele>
        <time>2013-05-05T06:16:10Z</time>
      </trkpt>
      <trkpt lat="45.05151" lon="6.40987">
        <ele>2433.2</ele>
        <time>2013-05-05T06:16:11Z</time>
      </trkpt>
      <trkpt lat="45.05165" lon="6.40974">
        <ele>2431.1</ele>
        <time>2013-05-05T06:17:01Z</time>
      </trkpt>
      <trkpt lat="45.05171" lon="6.40965">
        <ele>2433</ele>
        <time>2013-05-05T06:17:16Z</time>
      </trkpt>
      <trkpt lat="45.05171" lon="6.40964">
        <ele>2432.9</ele>
        <time>2013-05-05T06:17:17Z</time>
      </trkpt>
      <trkpt lat="45.05185" lon="6.40951">
        <ele>2434.9</ele>
        <time>2013-05-05T06:17:46Z</time>
      </trkpt>
      <trkpt lat="45.05193" lon="6.40945">
        <ele>2435.8</ele>
        <time>2013-05-05T06:18:01Z</time>
      </trkpt>
      <trkpt lat="45.05198" lon="6.40935">
        <ele>2436.5</ele>
        <time>2013-05-05T06:18:17Z</time>
      </trkpt>
      <trkpt lat="45.05198" lon="6.40934">
        <ele>2436.5</ele>
        <time>2013-05-05T06:18:18Z</time>
      </trkpt>
      <trkpt lat="45.05202" lon="6.40911">
        <ele>2438.3</ele>
        <time>2013-05-05T06:18:47Z</time>
      </trkpt>
      <trkpt lat="45.05207" lon="6.40901">
        <ele>2439</ele>
        <time>2013-05-05T06:19:02Z</time>
      </trkpt>
      <trkpt lat="45.05215" lon="6.40896">
        <ele>2440.5</ele>
        <time>2013-05-05T06:19:16Z</time>
      </trkpt>
      <trkpt lat="45.0522" lon="6.40886">
        <ele>2441.5</ele>
        <time>2013-05-05T06:19:33Z</time>
      </trkpt>
      <trkpt lat="45.05221" lon="6.40885">
        <ele>2441.8</ele>
        <time>2013-05-05T06:19:34Z</time>
      </trkpt>
      <trkpt lat="45.05222" lon="6.40863">
        <ele>2444.6</ele>
        <time>2013-05-05T06:20:09Z</time>
      </trkpt>
      <trkpt lat="45.05229" lon="6.40856">
        <ele>2444.6</ele>
        <time>2013-05-05T06:20:23Z</time>
      </trkpt>
      <trkpt lat="45.05238" lon="6.40855">
        <ele>2446</ele>
        <time>2013-05-05T06:20:37Z</time>
      </trkpt>
      <trkpt lat="45.05238" lon="6.40855">
        <ele>2446.1</ele>
        <time>2013-05-05T06:20:38Z</time>
      </trkpt>
      <trkpt lat="45.05248" lon="6.40846">
        <ele>2448.3</ele>
        <time>2013-05-05T06:21:09Z</time>
      </trkpt>
      <trkpt lat="45.0525" lon="6.40834">
        <ele>2448</ele>
        <time>2013-05-05T06:21:24Z</time>
      </trkpt>
      <trkpt lat="45.05249" lon="6.40822">
        <ele>2449.3</ele>
        <time>2013-05-05T06:21:38Z</time>
      </trkpt>
      <trkpt lat="45.05249" lon="6.40821">
        <ele>2449.4</ele>
        <time>2013-05-05T06:21:39Z</time>
      </trkpt>
      <trkpt lat="45.05262" lon="6.40812">
        <ele>2450.6</ele>
        <time>2013-05-05T06:22:09Z</time>
      </trkpt>
      <trkpt lat="45.0527" lon="6.40816">
        <ele>2451.5</ele>
        <time>2013-05-05T06:22:19Z</time>
      </trkpt>
      <trkpt lat="45.05278" lon="6.40821">
        <ele>2452.5</ele>
        <time>2013-05-05T06:22:35Z</time>
      </trkpt>
      <trkpt lat="45.0528" lon="6.40809">
        <ele>2452.2</ele>
        <time>2013-05-05T06:22:50Z</time>
      </trkpt>
      <trkpt lat="45.05281" lon="6.40809">
        <ele>2452</ele>
        <time>2013-05-05T06:22:51Z</time>
      </trkpt>
      <trkpt lat="45.05284" lon="6.40785">
        <ele>2453.8</ele>
        <time>2013-05-05T06:23:19Z</time>
      </trkpt>
      <trkpt lat="45.05292" lon="6.40784">
        <ele>2455</ele>
        <time>2013-05-05T06:23:33Z</time>
      </trkpt>
      <trkpt lat="45.053" lon="6.40789">
        <ele>2455.8</ele>
        <time>2013-05-05T06:23:45Z</time>
      </trkpt>
      <trkpt lat="45.05307" lon="6.40796">
        <ele>2457.3</ele>
        <time>2013-05-05T06:23:58Z</time>
      </trkpt>
      <trkpt lat="45.05307" lon="6.40796">
        <ele>2457.6</ele>
        <time>2013-05-05T06:23:59Z</time>
      </trkpt>
      <trkpt lat="45.0531" lon="6.40772">
        <ele>2457.3</ele>
        <time>2013-05-05T06:24:29Z</time>
      </trkpt>
      <trkpt lat="45.05309" lon="6.4076">
        <ele>2458.8</ele>
        <time>2013-05-05T06:24:41Z</time>
      </trkpt>
      <trkpt lat="45.05309" lon="6.40747">
        <ele>2459.2</ele>
        <time>2013-05-05T06:24:53Z</time>
      </trkpt>
      <trkpt lat="45.05315" lon="6.40739">
        <ele>2460.4</ele>
        <time>2013-05-05T06:25:15Z</time>
      </trkpt>
      <trkpt lat="45.05316" lon="6.4074">
        <ele>2460.5</ele>
        <time>2013-05-05T06:25:16Z</time>
      </trkpt>
      <trkpt lat="45.0533" lon="6.40752">
        <ele>2462.4</ele>
        <time>2013-05-05T06:25:40Z</time>
      </trkpt>
      <trkpt lat="45.05337" lon="6.40759">
        <ele>2462.4</ele>
        <time>2013-05-05T06:25:51Z</time>
      </trkpt>
      <trkpt lat="45.05344" lon="6.40766">
        <ele>2462.9</ele>
        <time>2013-05-05T06:26:04Z</time>
      </trkpt>
      <trkpt lat="45.0535" lon="6.40775">
        <ele>2462.9</ele>
        <time>2013-05-05T06:26:20Z</time>
      </trkpt>
      <trkpt lat="45.0535" lon="6.40776">
        <ele>2463</ele>
        <time>2013-05-05T06:26:21Z</time>
      </trkpt>
      <trkpt lat="45.05358" lon="6.40756">
        <ele>2464.5</ele>
        <time>2013-05-05T06:26:54Z</time>
      </trkpt>
      <trkpt lat="45.05359" lon="6.40744">
        <ele>2466.3</ele>
        <time>2013-05-05T06:27:07Z</time>
      </trkpt>
      <trkpt lat="45.0536" lon="6.40731">
        <ele>2466.3</ele>
        <time>2013-05-05T06:27:20Z</time>
      </trkpt>
      <trkpt lat="45.05363" lon="6.4072">
        <ele>2467</ele>
        <time>2013-05-05T06:27:33Z</time>
      </trkpt>
      <trkpt lat="45.05363" lon="6.40719">
        <ele>2466.8</ele>
        <time>2013-05-05T06:27:34Z</time>
      </trkpt>
      <trkpt lat="45.05366" lon="6.40695">
        <ele>2470.1</ele>
        <time>2013-05-05T06:28:02Z</time>
      </trkpt>
      <trkpt lat="45.05367" lon="6.40683">
        <ele>2470.8</ele>
        <time>2013-05-05T06:28:18Z</time>
      </trkpt>
      <trkpt lat="45.05368" lon="6.40671">
        <ele>2470.7</ele>
        <time>2013-05-05T06:28:34Z</time>
      </trkpt>
      <trkpt lat="45.05368" lon="6.4067">
        <ele>2471</ele>
        <time>2013-05-05T06:28:35Z</time>
      </trkpt>
      <trkpt lat="45.0537" lon="6.40647">
        <ele>2472.9</ele>
        <time>2013-05-05T06:29:01Z</time>
      </trkpt>
      <trkpt lat="45.05368" lon="6.40634">
        <ele>2473.8</ele>
        <time>2013-05-05T06:29:16Z</time>
      </trkpt>
      <trkpt lat="45.05368" lon="6.40622">
        <ele>2474.8</ele>
        <time>2013-05-05T06:29:32Z</time>
      </trkpt>
      <trkpt lat="45.05367" lon="6.4061">
        <ele>2476.2</ele>
        <time>2013-05-05T06:29:47Z</time>
      </trkpt>
      <trkpt lat="45.05367" lon="6.40609">
        <ele>2476</ele>
        <time>2013-05-05T06:29:48Z</time>
      </trkpt>
      <trkpt lat="45.05359" lon="6.40588">
        <ele>2478.4</ele>
        <time>2013-05-05T06:30:15Z</time>
      </trkpt>
      <trkpt lat="45.05353" lon="6.4058">
        <ele>2479.5</ele>
        <time>2013-05-05T06:30:31Z</time>
      </trkpt>
      <trkpt lat="45.05361" lon="6.40576">
        <ele>2479.8</ele>
        <time>2013-05-05T06:30:51Z</time>
      </trkpt>
      <trkpt lat="45.05362" lon="6.40576">
        <ele>2480.1</ele>
        <time>2013-05-05T06:30:52Z</time>
      </trkpt>
      <trkpt lat="45.05379" lon="6.40573">
        <ele>2480.1</ele>
        <time>2013-05-05T06:31:19Z</time>
      </trkpt>
      <trkpt lat="45.05387" lon="6.40575">
        <ele>2481.4</ele>
        <time>2013-05-05T06:31:36Z</time>
      </trkpt>
      <trkpt lat="45.05386" lon="6.40563">
        <ele>2482.2</ele>
        <time>2013-05-05T06:31:56Z</time>
      </trkpt>
      <trkpt lat="45.05386" lon="6.40562">
        <ele>2481.9</ele>
        <time>2013-05-05T06:31:57Z</time>
      </trkpt>
      <trkpt lat="45.05381" lon="6.4054">
        <ele>2483.5</ele>
        <time>2013-05-05T06:32:23Z</time>
      </trkpt>
      <trkpt lat="45.05379" lon="6.40528">
        <ele>2484.6</ele>
        <time>2013-05-05T06:32:38Z</time>
      </trkpt>
      <trkpt lat="45.05377" lon="6.40516">
        <ele>2484.9</ele>
        <time>2013-05-05T06:32:59Z</time>
      </trkpt>
      <trkpt lat="45.05377" lon="6.40515">
        <ele>2484.9</ele>
        <time>2013-05-05T06:33:00Z</time>
      </trkpt>
      <trkpt lat="45.05384" lon="6.40495">
        <ele>2486.4</ele>
        <time>2013-05-05T06:33:30Z</time>
      </trkpt>
      <trkpt lat="45.05386" lon="6.40483">
        <ele>2485.7</ele>
        <time>2013-05-05T06:33:46Z</time>
      </trkpt>
      <trkpt lat="45.05389" lon="6.40471">
        <ele>2487.6</ele>
        <time>2013-05-05T06:34:01Z</time>
      </trkpt>
      <trkpt lat="45.05389" lon="6.40471">
        <ele>2487.5</ele>
        <time>2013-05-05T06:34:02Z</time>
      </trkpt>
      <trkpt lat="45.05391" lon="6.40447">
        <ele>2441.7</ele>
        <time>2013-05-05T06:49:55Z</time>
      </trkpt>
      <trkpt lat="45.05391" lon="6.40446">
        <ele>2441.5</ele>
        <time>2013-05-05T06:49:56Z</time>
      </trkpt>
      <trkpt lat="45.05399" lon="6.40425">
        <ele>2447.1</ele>
        <time>2013-05-05T06:50:28Z</time>
      </trkpt>
      <trkpt lat="45.05404" lon="6.40415">
        <ele>2449.5</ele>
        <time>2013-05-05T06:50:43Z</time>
      </trkpt>
      <trkpt lat="45.05409" lon="6.40405">
        <ele>2451.5</ele>
        <time>2013-05-05T06:50:58Z</time>
      </trkpt>
      <trkpt lat="45.0541" lon="6.40404">
        <ele>2451.8</ele>
        <time>2013-05-05T06:50:59Z</time>
      </trkpt>
      <trkpt lat="45.0542" lon="6.40385">
        <ele>2455.8</ele>
        <time>2013-05-05T06:51:30Z</time>
      </trkpt>
      <trkpt lat="45.05425" lon="6.40375">
        <ele>2458.4</ele>
        <time>2013-05-05T06:51:44Z</time>
      </trkpt>
      <trkpt lat="45.05431" lon="6.40365">
        <ele>2459.9</ele>
        <time>2013-05-05T06:51:58Z</time>
      </trkpt>
      <trkpt lat="45.05436" lon="6.40356">
        <ele>2462.4</ele>
        <time>2013-05-05T06:52:11Z</time>
      </trkpt>
      <trkpt lat="45.05437" lon="6.40355">
        <ele>2462.6</ele>
        <time>2013-05-05T06:52:12Z</time>
      </trkpt>
      <trkpt lat="45.05448" lon="6.40337">
        <ele>2465.2</ele>
        <time>2013-05-05T06:52:35Z</time>
      </trkpt>
      <trkpt lat="45.05453" lon="6.40328">
        <ele>2465.9</ele>
        <time>2013-05-05T06:52:47Z</time>
      </trkpt>
      <trkpt lat="45.05457" lon="6.40317">
        <ele>2467.2</ele>
        <time>2013-05-05T06:52:58Z</time>
      </trkpt>
      <trkpt lat="45.05461" lon="6.40307">
        <ele>2467.3</ele>
        <time>2013-05-05T06:53:08Z</time>
      </trkpt>
      <trkpt lat="45.05466" lon="6.40297">
        <ele>2468.9</ele>
        <time>2013-05-05T06:53:19Z</time>
      </trkpt>
      <trkpt lat="45.05466" lon="6.40297">
        <ele>2469.2</ele>
        <time>2013-05-05T06:53:20Z</time>
      </trkpt>
      <trkpt lat="45.05478" lon="6.4028">
        <ele>2469.4</ele>
        <time>2013-05-05T06:53:46Z</time>
      </trkpt>
      <trkpt lat="45.05484" lon="6.40271">
        <ele>2471.2</ele>
        <time>2013-05-05T06:54:00Z</time>
      </trkpt>
      <trkpt lat="45.05491" lon="6.40264">
        <ele>2473</ele>
        <time>2013-05-05T06:54:13Z</time>
      </trkpt>
      <trkpt lat="45.05498" lon="6.40257">
        <ele>2474.5</ele>
        <time>2013-05-05T06:54:28Z</time>
      </trkpt>
      <trkpt lat="45.05499" lon="6.40256">
        <ele>2474.8</ele>
        <time>2013-05-05T06:54:29Z</time>
      </trkpt>
      <trkpt lat="45.05508" lon="6.40238">
        <ele>2477.7</ele>
        <time>2013-05-05T06:54:54Z</time>
      </trkpt>
      <trkpt lat="45.05514" lon="6.40229">
        <ele>2478.6</ele>
        <time>2013-05-05T06:55:07Z</time>
      </trkpt>
      <trkpt lat="45.05518" lon="6.40217">
        <ele>2481.5</ele>
        <time>2013-05-05T06:55:22Z</time>
      </trkpt>
      <trkpt lat="45.05522" lon="6.40206">
        <ele>2483.3</ele>
        <time>2013-05-05T06:55:37Z</time>
      </trkpt>
      <trkpt lat="45.05522" lon="6.40206">
        <ele>2483.1</ele>
        <time>2013-05-05T06:55:38Z</time>
      </trkpt>
      <trkpt lat="45.05533" lon="6.40187">
        <ele>2486.7</ele>
        <time>2013-05-05T06:56:07Z</time>
      </trkpt>
      <trkpt lat="45.05538" lon="6.40177">
        <ele>2489</ele>
        <time>2013-05-05T06:56:20Z</time>
      </trkpt>
      <trkpt lat="45.05545" lon="6.4017">
        <ele>2490.3</ele>
        <time>2013-05-05T06:56:37Z</time>
      </trkpt>
      <trkpt lat="45.0555" lon="6.4016">
        <ele>2493.4</ele>
        <time>2013-05-05T06:56:54Z</time>
      </trkpt>
      <trkpt lat="45.05549" lon="6.40159">
        <ele>2493.7</ele>
        <time>2013-05-05T06:56:55Z</time>
      </trkpt>
      <trkpt lat="45.05559" lon="6.40138">
        <ele>2496.1</ele>
        <time>2013-05-05T06:57:26Z</time>
      </trkpt>
      <trkpt lat="45.05563" lon="6.40127">
        <ele>2497.9</ele>
        <time>2013-05-05T06:57:41Z</time>
      </trkpt>
      <trkpt lat="45.05567" lon="6.40117">
        <ele>2500.6</ele>
        <time>2013-05-05T06:57:54Z</time>
      </trkpt>
      <trkpt lat="45.05573" lon="6.40107">
        <ele>2501</ele>
        <time>2013-05-05T06:58:08Z</time>
      </trkpt>
      <trkpt lat="45.05573" lon="6.40107">
        <ele>2501.2</ele>
        <time>2013-05-05T06:58:09Z</time>
      </trkpt>
      <trkpt lat="45.05582" lon="6.40087">
        <ele>2504.5</ele>
        <time>2013-05-05T06:58:35Z</time>
      </trkpt>
      <trkpt lat="45.05585" lon="6.40075">
        <ele>2505.4</ele>
        <time>2013-05-05T06:58:47Z</time>
      </trkpt>
      <trkpt lat="45.05588" lon="6.40064">
        <ele>2507.5</ele>
        <time>2013-05-05T06:59:00Z</time>
      </trkpt>
      <trkpt lat="45.05592" lon="6.40052">
        <ele>2508.1</ele>
        <time>2013-05-05T06:59:14Z</time>
      </trkpt>
      <trkpt lat="45.05592" lon="6.40051">
        <ele>2508.3</ele>
        <time>2013-05-05T06:59:15Z</time>
      </trkpt>
      <trkpt lat="45.05598" lon="6.40029">
        <ele>2512.8</ele>
        <time>2013-05-05T06:59:44Z</time>
      </trkpt>
      <trkpt lat="45.056" lon="6.40017">
        <ele>2515.3</ele>
        <time>2013-05-05T06:59:58Z</time>
      </trkpt>
      <trkpt lat="45.05602" lon="6.40005">
        <ele>2517.3</ele>
        <time>2013-05-05T07:00:15Z</time>
      </trkpt>
      <trkpt lat="45.05603" lon="6.40005">
        <ele>2517.3</ele>
        <time>2013-05-05T07:00:16Z</time>
      </trkpt>
      <trkpt lat="45.05608" lon="6.39982">
        <ele>2522.1</ele>
        <time>2013-05-05T07:00:49Z</time>
      </trkpt>
      <trkpt lat="45.05609" lon="6.3997">
        <ele>2523.1</ele>
        <time>2013-05-05T07:01:03Z</time>
      </trkpt>
      <trkpt lat="45.05611" lon="6.39958">
        <ele>2527.1</ele>
        <time>2013-05-05T07:01:20Z</time>
      </trkpt>
      <trkpt lat="45.05612" lon="6.39958">
        <ele>2527.5</ele>
        <time>2013-05-05T07:01:21Z</time>
      </trkpt>
      <trkpt lat="45.05618" lon="6.39936">
        <ele>2530.3</ele>
        <time>2013-05-05T07:01:54Z</time>
      </trkpt>
      <trkpt lat="45.0562" lon="6.39924">
        <ele>2532.7</ele>
        <time>2013-05-05T07:02:08Z</time>
      </trkpt>
      <trkpt lat="45.05622" lon="6.39912">
        <ele>2533.4</ele>
        <time>2013-05-05T07:02:23Z</time>
      </trkpt>
      <trkpt lat="45.05622" lon="6.39911">
        <ele>2533.8</ele>
        <time>2013-05-05T07:02:24Z</time>
      </trkpt>
      <trkpt lat="45.05627" lon="6.39888">
        <ele>2539.3</ele>
        <time>2013-05-05T07:02:55Z</time>
      </trkpt>
      <trkpt lat="45.05629" lon="6.39876">
        <ele>2540.9</ele>
        <time>2013-05-05T07:03:10Z</time>
      </trkpt>
      <trkpt lat="45.05631" lon="6.39864">
        <ele>2542.9</ele>
        <time>2013-05-05T07:03:31Z</time>
      </trkpt>
      <trkpt lat="45.05631" lon="6.39863">
        <ele>2543.1</ele>
        <time>2013-05-05T07:03:32Z</time>
      </trkpt>
      <trkpt lat="45.05637" lon="6.39841">
        <ele>2548.3</ele>
        <time>2013-05-05T07:04:46Z</time>
      </trkpt>
      <trkpt lat="45.05637" lon="6.3984">
        <ele>2548.3</ele>
        <time>2013-05-05T07:04:47Z</time>
      </trkpt>
      <trkpt lat="45.0565" lon="6.39824">
        <ele>2552.5</ele>
        <time>2013-05-05T07:05:46Z</time>
      </trkpt>
      <trkpt lat="45.05657" lon="6.39817">
        <ele>2554.5</ele>
        <time>2013-05-05T07:06:00Z</time>
      </trkpt>
      <trkpt lat="45.05658" lon="6.39817">
        <ele>2555</ele>
        <time>2013-05-05T07:06:01Z</time>
      </trkpt>
      <trkpt lat="45.05668" lon="6.39799">
        <ele>2559.6</ele>
        <time>2013-05-05T07:06:30Z</time>
      </trkpt>
      <trkpt lat="45.05673" lon="6.39788">
        <ele>2560.9</ele>
        <time>2013-05-05T07:06:45Z</time>
      </trkpt>
      <trkpt lat="45.05676" lon="6.39777">
        <ele>2562.3</ele>
        <time>2013-05-05T07:07:02Z</time>
      </trkpt>
      <trkpt lat="45.05677" lon="6.39776">
        <ele>2562.7</ele>
        <time>2013-05-05T07:07:03Z</time>
      </trkpt>
      <trkpt lat="45.05685" lon="6.39756">
        <ele>2567.8</ele>
        <time>2013-05-05T07:07:32Z</time>
      </trkpt>
      <trkpt lat="45.0569" lon="6.39747">
        <ele>2570</ele>
        <time>2013-05-05T07:07:51Z</time>
      </trkpt>
      <trkpt lat="45.05696" lon="6.39737">
        <ele>2572.8</ele>
        <time>2013-05-05T07:08:07Z</time>
      </trkpt>
      <trkpt lat="45.05696" lon="6.39737">
        <ele>2572.8</ele>
        <time>2013-05-05T07:08:08Z</time>
      </trkpt>
      <trkpt lat="45.05708" lon="6.39719">
        <ele>2577.2</ele>
        <time>2013-05-05T07:08:38Z</time>
      </trkpt>
      <trkpt lat="45.05715" lon="6.39713">
        <ele>2577.8</ele>
        <time>2013-05-05T07:08:53Z</time>
      </trkpt>
      <trkpt lat="45.05721" lon="6.39703">
        <ele>2580.6</ele>
        <time>2013-05-05T07:09:16Z</time>
      </trkpt>
      <trkpt lat="45.05722" lon="6.39703">
        <ele>2581</ele>
        <time>2013-05-05T07:09:17Z</time>
      </trkpt>
      <trkpt lat="45.05734" lon="6.39686">
        <ele>2585.2</ele>
        <time>2013-05-05T07:09:45Z</time>
      </trkpt>
      <trkpt lat="45.0574" lon="6.39678">
        <ele>2587</ele>
        <time>2013-05-05T07:10:00Z</time>
      </trkpt>
      <trkpt lat="45.05746" lon="6.39669">
        <ele>2588.9</ele>
        <time>2013-05-05T07:10:21Z</time>
      </trkpt>
      <trkpt lat="45.05746" lon="6.39669">
        <ele>2588.8</ele>
        <time>2013-05-05T07:10:22Z</time>
      </trkpt>
      <trkpt lat="45.05758" lon="6.39651">
        <ele>2592.9</ele>
        <time>2013-05-05T07:10:46Z</time>
      </trkpt>
      <trkpt lat="45.05763" lon="6.39642">
        <ele>2595.6</ele>
        <time>2013-05-05T07:10:59Z</time>
      </trkpt>
      <trkpt lat="45.05764" lon="6.3963">
        <ele>2598.2</ele>
        <time>2013-05-05T07:11:12Z</time>
      </trkpt>
      <trkpt lat="45.05771" lon="6.39622">
        <ele>2603.4</ele>
        <time>2013-05-05T07:12:13Z</time>
      </trkpt>
      <trkpt lat="45.05771" lon="6.39622">
        <ele>2603.8</ele>
        <time>2013-05-05T07:12:14Z</time>
      </trkpt>
      <trkpt lat="45.05787" lon="6.3963">
        <ele>2608</ele>
        <time>2013-05-05T07:12:35Z</time>
      </trkpt>
      <trkpt lat="45.0579" lon="6.39619">
        <ele>2611.8</ele>
        <time>2013-05-05T07:12:49Z</time>
      </trkpt>
      <trkpt lat="45.05796" lon="6.39609">
        <ele>2615.3</ele>
        <time>2013-05-05T07:13:04Z</time>
      </trkpt>
      <trkpt lat="45.05803" lon="6.39602">
        <ele>2618.4</ele>
        <time>2013-05-05T07:13:20Z</time>
      </trkpt>
      <trkpt lat="45.05803" lon="6.39602">
        <ele>2618.5</ele>
        <time>2013-05-05T07:13:21Z</time>
      </trkpt>
      <trkpt lat="45.05815" lon="6.39585">
        <ele>2623.1</ele>
        <time>2013-05-05T07:14:01Z</time>
      </trkpt>
      <trkpt lat="45.05823" lon="6.39579">
        <ele>2624.5</ele>
        <time>2013-05-05T07:14:14Z</time>
      </trkpt>
      <trkpt lat="45.05829" lon="6.39571">
        <ele>2627.8</ele>
        <time>2013-05-05T07:14:28Z</time>
      </trkpt>
      <trkpt lat="45.0583" lon="6.3957">
        <ele>2628</ele>
        <time>2013-05-05T07:14:29Z</time>
      </trkpt>
      <trkpt lat="45.05836" lon="6.39548">
        <ele>2631.2</ele>
        <time>2013-05-05T07:14:51Z</time>
      </trkpt>
      <trkpt lat="45.05838" lon="6.39537">
        <ele>2633.5</ele>
        <time>2013-05-05T07:15:03Z</time>
      </trkpt>
      <trkpt lat="45.05843" lon="6.39526">
        <ele>2635.3</ele>
        <time>2013-05-05T07:15:23Z</time>
      </trkpt>
      <trkpt lat="45.05846" lon="6.39515">
        <ele>2638.9</ele>
        <time>2013-05-05T07:15:38Z</time>
      </trkpt>
      <trkpt lat="45.05847" lon="6.39515">
        <ele>2638.7</ele>
        <time>2013-05-05T07:15:39Z</time>
      </trkpt>
      <trkpt lat="45.05863" lon="6.39505">
        <ele>2643.6</ele>
        <time>2013-05-05T07:16:09Z</time>
      </trkpt>
      <trkpt lat="45.0587" lon="6.395">
        <ele>2645.6</ele>
        <time>2013-05-05T07:16:22Z</time>
      </trkpt>
      <trkpt lat="45.05876" lon="6.39491">
        <ele>2647.8</ele>
        <time>2013-05-05T07:16:41Z</time>
      </trkpt>
      <trkpt lat="45.05877" lon="6.3949">
        <ele>2648</ele>
        <time>2013-05-05T07:16:42Z</time>
      </trkpt>
      <trkpt lat="45.0589" lon="6.39475">
        <ele>2652.7</ele>
        <time>2013-05-05T07:17:19Z</time>
      </trkpt>
      <trkpt lat="45.05896" lon="6.39467">
        <ele>2655</ele>
        <time>2013-05-05T07:17:34Z</time>
      </trkpt>
      <trkpt lat="45.05905" lon="6.39462">
        <ele>2657.4</ele>
        <time>2013-05-05T07:17:49Z</time>
      </trkpt>
      <trkpt lat="45.05905" lon="6.39462">
        <ele>2657.7</ele>
        <time>2013-05-05T07:17:50Z</time>
      </trkpt>
      <trkpt lat="45.0592" lon="6.39451">
        <ele>2663.1</ele>
        <time>2013-05-05T07:18:18Z</time>
      </trkpt>
      <trkpt lat="45.05927" lon="6.39444">
        <ele>2664.8</ele>
        <time>2013-05-05T07:18:32Z</time>
      </trkpt>
      <trkpt lat="45.05935" lon="6.39437">
        <ele>2668.2</ele>
        <time>2013-05-05T07:18:47Z</time>
      </trkpt>
      <trkpt lat="45.05942" lon="6.39429">
        <ele>2671.5</ele>
        <time>2013-05-05T07:19:03Z</time>
      </trkpt>
      <trkpt lat="45.05942" lon="6.39429">
        <ele>2671.7</ele>
        <time>2013-05-05T07:19:04Z</time>
      </trkpt>
      <trkpt lat="45.05946" lon="6.39405">
        <ele>2675.1</ele>
        <time>2013-05-05T07:19:52Z</time>
      </trkpt>
      <trkpt lat="45.05948" lon="6.39393">
        <ele>2678</ele>
        <time>2013-05-05T07:20:04Z</time>
      </trkpt>
      <trkpt lat="45.05948" lon="6.39392">
        <ele>2677.7</ele>
        <time>2013-05-05T07:20:05Z</time>
      </trkpt>
      <trkpt lat="45.05955" lon="6.39372">
        <ele>2682.7</ele>
        <time>2013-05-05T07:20:30Z</time>
      </trkpt>
      <trkpt lat="45.05962" lon="6.39364">
        <ele>2683.9</ele>
        <time>2013-05-05T07:21:16Z</time>
      </trkpt>
      <trkpt lat="45.05963" lon="6.39363">
        <ele>2684</ele>
        <time>2013-05-05T07:21:17Z</time>
      </trkpt>
      <trkpt lat="45.0597" lon="6.39343">
        <ele>2688.6</ele>
        <time>2013-05-05T07:21:41Z</time>
      </trkpt>
      <trkpt lat="45.05975" lon="6.39332">
        <ele>2691.5</ele>
        <time>2013-05-05T07:21:54Z</time>
      </trkpt>
      <trkpt lat="45.0598" lon="6.39322">
        <ele>2692.8</ele>
        <time>2013-05-05T07:22:07Z</time>
      </trkpt>
      <trkpt lat="45.05985" lon="6.39312">
        <ele>2695.3</ele>
        <time>2013-05-05T07:22:21Z</time>
      </trkpt>
      <trkpt lat="45.05985" lon="6.39311">
        <ele>2695.5</ele>
        <time>2013-05-05T07:22:22Z</time>
      </trkpt>
      <trkpt lat="45.05995" lon="6.39292">
        <ele>2700.9</ele>
        <time>2013-05-05T07:22:49Z</time>
      </trkpt>
      <trkpt lat="45.06" lon="6.39283">
        <ele>2703.2</ele>
        <time>2013-05-05T07:23:11Z</time>
      </trkpt>
      <trkpt lat="45.06005" lon="6.39273">
        <ele>2705.8</ele>
        <time>2013-05-05T07:23:25Z</time>
      </trkpt>
      <trkpt lat="45.06006" lon="6.39272">
        <ele>2705.9</ele>
        <time>2013-05-05T07:23:26Z</time>
      </trkpt>
      <trkpt lat="45.06017" lon="6.39253">
        <ele>2710.6</ele>
        <time>2013-05-05T07:23:52Z</time>
      </trkpt>
      <trkpt lat="45.06024" lon="6.39246">
        <ele>2713.5</ele>
        <time>2013-05-05T07:24:06Z</time>
      </trkpt>
      <trkpt lat="45.06031" lon="6.39239">
        <ele>2717.4</ele>
        <time>2013-05-05T07:24:22Z</time>
      </trkpt>
      <trkpt lat="45.06037" lon="6.39231">
        <ele>2719.5</ele>
        <time>2013-05-05T07:24:38Z</time>
      </trkpt>
      <trkpt lat="45.06038" lon="6.3923">
        <ele>2719.8</ele>
        <time>2013-05-05T07:24:39Z</time>
      </trkpt>
      <trkpt lat="45.06052" lon="6.39217">
        <ele>2724.8</ele>
        <time>2013-05-05T07:25:09Z</time>
      </trkpt>
      <trkpt lat="45.06058" lon="6.3921">
        <ele>2728.1</ele>
        <time>2013-05-05T07:25:24Z</time>
      </trkpt>
      <trkpt lat="45.06064" lon="6.392">
        <ele>2730.4</ele>
        <time>2013-05-05T07:25:39Z</time>
      </trkpt>
      <trkpt lat="45.06064" lon="6.39199">
        <ele>2730.3</ele>
        <time>2013-05-05T07:25:40Z</time>
      </trkpt>
      <trkpt lat="45.06075" lon="6.39181">
        <ele>2733.7</ele>
        <time>2013-05-05T07:26:06Z</time>
      </trkpt>
      <trkpt lat="45.06081" lon="6.39172">
        <ele>2734.7</ele>
        <time>2013-05-05T07:26:18Z</time>
      </trkpt>
      <trkpt lat="45.06087" lon="6.39163">
        <ele>2735.1</ele>
        <time>2013-05-05T07:26:30Z</time>
      </trkpt>
      <trkpt lat="45.06092" lon="6.39154">
        <ele>2735.6</ele>
        <time>2013-05-05T07:26:41Z</time>
      </trkpt>
      <trkpt lat="45.06093" lon="6.39153">
        <ele>2735.9</ele>
        <time>2013-05-05T07:26:42Z</time>
      </trkpt>
      <trkpt lat="45.06106" lon="6.39138">
        <ele>2737.7</ele>
        <time>2013-05-05T07:27:05Z</time>
      </trkpt>
      <trkpt lat="45.06113" lon="6.39131">
        <ele>2739</ele>
        <time>2013-05-05T07:27:17Z</time>
      </trkpt>
      <trkpt lat="45.0612" lon="6.39124">
        <ele>2740.3</ele>
        <time>2013-05-05T07:27:29Z</time>
      </trkpt>
      <trkpt lat="45.06127" lon="6.39117">
        <ele>2741.9</ele>
        <time>2013-05-05T07:27:41Z</time>
      </trkpt>
      <trkpt lat="45.06134" lon="6.39111">
        <ele>2743.2</ele>
        <time>2013-05-05T07:27:54Z</time>
      </trkpt>
      <trkpt lat="45.06135" lon="6.39111">
        <ele>2743.5</ele>
        <time>2013-05-05T07:27:55Z</time>
      </trkpt>
      <trkpt lat="45.0615" lon="6.39103">
        <ele>2747.5</ele>
        <time>2013-05-05T07:28:59Z</time>
      </trkpt>
      <trkpt lat="45.06151" lon="6.39102">
        <ele>2747.6</ele>
        <time>2013-05-05T07:29:00Z</time>
      </trkpt>
      <trkpt lat="45.06161" lon="6.39084">
        <ele>2750.3</ele>
        <time>2013-05-05T07:29:29Z</time>
      </trkpt>
      <trkpt lat="45.06168" lon="6.39077">
        <ele>2753.3</ele>
        <time>2013-05-05T07:29:44Z</time>
      </trkpt>
      <trkpt lat="45.06176" lon="6.39073">
        <ele>2756.3</ele>
        <time>2013-05-05T07:29:59Z</time>
      </trkpt>
      <trkpt lat="45.06184" lon="6.3907">
        <ele>2758.3</ele>
        <time>2013-05-05T07:30:13Z</time>
      </trkpt>
      <trkpt lat="45.06184" lon="6.39069">
        <ele>2758.6</ele>
        <time>2013-05-05T07:30:14Z</time>
      </trkpt>
      <trkpt lat="45.06197" lon="6.39054">
        <ele>2763.5</ele>
        <time>2013-05-05T07:30:38Z</time>
      </trkpt>
      <trkpt lat="45.06205" lon="6.39047">
        <ele>2765.3</ele>
        <time>2013-05-05T07:30:51Z</time>
      </trkpt>
      <trkpt lat="45.06212" lon="6.39042">
        <ele>2765.2</ele>
        <time>2013-05-05T07:31:03Z</time>
      </trkpt>
      <trkpt lat="45.0622" lon="6.39036">
        <ele>2768</ele>
        <time>2013-05-05T07:31:19Z</time>
      </trkpt>
      <trkpt lat="45.0622" lon="6.39035">
        <ele>2768</ele>
        <time>2013-05-05T07:31:20Z</time>
      </trkpt>
      <trkpt lat="45.06234" lon="6.39022">
        <ele>2771.3</ele>
        <time>2013-05-05T07:31:43Z</time>
      </trkpt>
      <trkpt lat="45.06241" lon="6.39015">
        <ele>2773.6</ele>
        <time>2013-05-05T07:31:56Z</time>
      </trkpt>
      <trkpt lat="45.06248" lon="6.39007">
        <ele>2775.8</ele>
        <time>2013-05-05T07:32:10Z</time>
      </trkpt>
      <trkpt lat="45.06254" lon="6.38998">
        <ele>2777.5</ele>
        <time>2013-05-05T07:32:24Z</time>
      </trkpt>
      <trkpt lat="45.06255" lon="6.38998">
        <ele>2777.7</ele>
        <time>2013-05-05T07:32:25Z</time>
      </trkpt>
      <trkpt lat="45.06266" lon="6.3898">
        <ele>2781.9</ele>
        <time>2013-05-05T07:32:53Z</time>
      </trkpt>
      <trkpt lat="45.06273" lon="6.38972">
        <ele>2784.3</ele>
        <time>2013-05-05T07:33:06Z</time>
      </trkpt>
      <trkpt lat="45.06279" lon="6.38963">
        <ele>2786.8</ele>
        <time>2013-05-05T07:33:20Z</time>
      </trkpt>
      <trkpt lat="45.06285" lon="6.38955">
        <ele>2789.3</ele>
        <time>2013-05-05T07:33:35Z</time>
      </trkpt>
      <trkpt lat="45.06286" lon="6.38954">
        <ele>2789.4</ele>
        <time>2013-05-05T07:33:36Z</time>
      </trkpt>
      <trkpt lat="45.06296" lon="6.38937">
        <ele>2792.7</ele>
        <time>2013-05-05T07:34:24Z</time>
      </trkpt>
      <trkpt lat="45.06302" lon="6.38928">
        <ele>2795.5</ele>
        <time>2013-05-05T07:34:37Z</time>
      </trkpt>
      <trkpt lat="45.06302" lon="6.38927">
        <ele>2795.5</ele>
        <time>2013-05-05T07:34:38Z</time>
      </trkpt>
      <trkpt lat="45.0631" lon="6.38907">
        <ele>2798.1</ele>
        <time>2013-05-05T07:35:02Z</time>
      </trkpt>
      <trkpt lat="45.06315" lon="6.38896">
        <ele>2800.5</ele>
        <time>2013-05-05T07:35:15Z</time>
      </trkpt>
      <trkpt lat="45.06319" lon="6.38885">
        <ele>2802.6</ele>
        <time>2013-05-05T07:35:28Z</time>
      </trkpt>
      <trkpt lat="45.06323" lon="6.38874">
        <ele>2805.1</ele>
        <time>2013-05-05T07:35:41Z</time>
      </trkpt>
      <trkpt lat="45.06323" lon="6.38874">
        <ele>2805.3</ele>
        <time>2013-05-05T07:35:42Z</time>
      </trkpt>
      <trkpt lat="45.06332" lon="6.38854">
        <ele>2810.4</ele>
        <time>2013-05-05T07:36:10Z</time>
      </trkpt>
      <trkpt lat="45.06338" lon="6.38844">
        <ele>2811.6</ele>
        <time>2013-05-05T07:36:24Z</time>
      </trkpt>
      <trkpt lat="45.06343" lon="6.38834">
        <ele>2813.9</ele>
        <time>2013-05-05T07:36:38Z</time>
      </trkpt>
      <trkpt lat="45.06349" lon="6.38825">
        <ele>2815.9</ele>
        <time>2013-05-05T07:36:51Z</time>
      </trkpt>
      <trkpt lat="45.06349" lon="6.38824">
        <ele>2816.1</ele>
        <time>2013-05-05T07:36:52Z</time>
      </trkpt>
      <trkpt lat="45.06358" lon="6.38806">
        <ele>2819.2</ele>
        <time>2013-05-05T07:37:18Z</time>
      </trkpt>
      <trkpt lat="45.06359" lon="6.38793">
        <ele>2820.7</ele>
        <time>2013-05-05T07:37:44Z</time>
      </trkpt>
      <trkpt lat="45.06359" lon="6.3878">
        <ele>2823.2</ele>
        <time>2013-05-05T07:38:22Z</time>
      </trkpt>
      <trkpt lat="45.06359" lon="6.38779">
        <ele>2823.5</ele>
        <time>2013-05-05T07:38:23Z</time>
      </trkpt>
      <trkpt lat="45.06359" lon="6.38756">
        <ele>2829.9</ele>
        <time>2013-05-05T07:38:51Z</time>
      </trkpt>
      <trkpt lat="45.0636" lon="6.38744">
        <ele>2833.5</ele>
        <time>2013-05-05T07:39:06Z</time>
      </trkpt>
      <trkpt lat="45.0636" lon="6.38732">
        <ele>2837.2</ele>
        <time>2013-05-05T07:39:22Z</time>
      </trkpt>
      <trkpt lat="45.06362" lon="6.38719">
        <ele>2839</ele>
        <time>2013-05-05T07:39:38Z</time>
      </trkpt>
      <trkpt lat="45.06362" lon="6.38719">
        <ele>2839</ele>
        <time>2013-05-05T07:39:39Z</time>
      </trkpt>
      <trkpt lat="45.06365" lon="6.38695">
        <ele>2844.6</ele>
        <time>2013-05-05T07:40:11Z</time>
      </trkpt>
      <trkpt lat="45.06367" lon="6.38683">
        <ele>2847.1</ele>
        <time>2013-05-05T07:40:28Z</time>
      </trkpt>
      <trkpt lat="45.0637" lon="6.38672">
        <ele>2848.8</ele>
        <time>2013-05-05T07:40:44Z</time>
      </trkpt>
      <trkpt lat="45.0637" lon="6.38671">
        <ele>2849</ele>
        <time>2013-05-05T07:40:45Z</time>
      </trkpt>
      <trkpt lat="45.06374" lon="6.38648">
        <ele>2853.6</ele>
        <time>2013-05-05T07:41:39Z</time>
      </trkpt>
      <trkpt lat="45.06373" lon="6.38636">
        <ele>2856.7</ele>
        <time>2013-05-05T07:41:53Z</time>
      </trkpt>
      <trkpt lat="45.06373" lon="6.38635">
        <ele>2856.9</ele>
        <time>2013-05-05T07:41:54Z</time>
      </trkpt>
      <trkpt lat="45.06378" lon="6.38617">
        <ele>2862.7</ele>
        <time>2013-05-05T07:42:32Z</time>
      </trkpt>
      <trkpt lat="45.06386" lon="6.38612">
        <ele>2865.3</ele>
        <time>2013-05-05T07:42:49Z</time>
      </trkpt>
      <trkpt lat="45.06393" lon="6.38604">
        <ele>2868.5</ele>
        <time>2013-05-05T07:43:32Z</time>
      </trkpt>
      <trkpt lat="45.06393" lon="6.38604">
        <ele>2868.1</ele>
        <time>2013-05-05T07:43:33Z</time>
      </trkpt>
      <trkpt lat="45.06385" lon="6.38582">
        <ele>2875</ele>
        <time>2013-05-05T07:44:05Z</time>
      </trkpt>
      <trkpt lat="45.0638" lon="6.38571">
        <ele>2877.4</ele>
        <time>2013-05-05T07:44:20Z</time>
      </trkpt>
      <trkpt lat="45.06377" lon="6.3856">
        <ele>2880.9</ele>
        <time>2013-05-05T07:44:33Z</time>
      </trkpt>
      <trkpt lat="45.06376" lon="6.3856">
        <ele>2880.9</ele>
        <time>2013-05-05T07:44:34Z</time>
      </trkpt>
      <trkpt lat="45.06376" lon="6.38537">
        <ele>2887.7</ele>
        <time>2013-05-05T07:45:39Z</time>
      </trkpt>
      <trkpt lat="45.06376" lon="6.38536">
        <ele>2888.4</ele>
        <time>2013-05-05T07:45:40Z</time>
      </trkpt>
      <trkpt lat="45.06392" lon="6.38528">
        <ele>2892.8</ele>
        <time>2013-05-05T07:46:07Z</time>
      </trkpt>
      <trkpt lat="45.06399" lon="6.3852">
        <ele>2895.4</ele>
        <time>2013-05-05T07:46:22Z</time>
      </trkpt>
      <trkpt lat="45.06392" lon="6.38512">
        <ele>2900</ele>
        <time>2013-05-05T07:47:08Z</time>
      </trkpt>
      <trkpt lat="45.06392" lon="6.38512">
        <ele>2900.2</ele>
        <time>2013-05-05T07:47:09Z</time>
      </trkpt>
      <trkpt lat="45.06389" lon="6.38495">
        <ele>2906.9</ele>
        <time>2013-05-05T07:48:14Z</time>
      </trkpt>
      <trkpt lat="45.06388" lon="6.38494">
        <ele>2907.4</ele>
        <time>2013-05-05T07:48:15Z</time>
      </trkpt>
      <trkpt lat="45.06389" lon="6.38481">
        <ele>2913.1</ele>
        <time>2013-05-05T07:49:06Z</time>
      </trkpt>
      <trkpt lat="45.06397" lon="6.38476">
        <ele>2916.4</ele>
        <time>2013-05-05T07:49:23Z</time>
      </trkpt>
      <trkpt lat="45.06398" lon="6.38476">
        <ele>2916.5</ele>
        <time>2013-05-05T07:49:24Z</time>
      </trkpt>
      <trkpt lat="45.06396" lon="6.38454">
        <ele>2926.8</ele>
        <time>2013-05-05T07:50:48Z</time>
      </trkpt>
      <trkpt lat="45.06396" lon="6.38453">
        <ele>2927</ele>
        <time>2013-05-05T07:50:49Z</time>
      </trkpt>
      <trkpt lat="45.06396" lon="6.38441">
        <ele>2935.5</ele>
        <time>2013-05-05T07:51:59Z</time>
      </trkpt>
      <trkpt lat="45.06401" lon="6.38424">
        <ele>2942.2</ele>
        <time>2013-05-05T07:52:59Z</time>
      </trkpt>
      <trkpt lat="45.06401" lon="6.38423">
        <ele>2942.2</ele>
        <time>2013-05-05T07:53:00Z</time>
      </trkpt>
      <trkpt lat="45.06411" lon="6.38404">
        <ele>2949.2</ele>
        <time>2013-05-05T07:53:51Z</time>
      </trkpt>
      <trkpt lat="45.06415" lon="6.38393">
        <ele>2949.9</ele>
        <time>2013-05-05T07:54:07Z</time>
      </trkpt>
      <trkpt lat="45.06415" lon="6.38392">
        <ele>2950.7</ele>
        <time>2013-05-05T07:54:08Z</time>
      </trkpt>
      <trkpt lat="45.06409" lon="6.38383">
        <ele>2952.9</ele>
        <time>2013-05-05T08:08:46Z</time>
      </trkpt>
      <trkpt lat="45.06406" lon="6.38397">
        <ele>2951</ele>
        <time>2013-05-05T08:13:09Z</time>
      </trkpt>
      <trkpt lat="45.06398" lon="6.38408">
        <ele>2945.8</ele>
        <time>2013-05-05T08:14:23Z</time>
      </trkpt>
      <trkpt lat="45.06394" lon="6.38405">
        <ele>2945.9</ele>
        <time>2013-05-05T08:14:24Z</time>
      </trkpt>
      <trkpt lat="45.06385" lon="6.38398">
        <ele>2945.4</ele>
        <time>2013-05-05T08:14:27Z</time>
      </trkpt>
      <trkpt lat="45.06378" lon="6.38405">
        <ele>2938</ele>
        <time>2013-05-05T08:14:41Z</time>
      </trkpt>
      <trkpt lat="45.06373" lon="6.38412">
        <ele>2936.7</ele>
        <time>2013-05-05T08:14:46Z</time>
      </trkpt>
      <trkpt lat="45.06364" lon="6.3841">
        <ele>2934.3</ele>
        <time>2013-05-05T08:14:49Z</time>
      </trkpt>
      <trkpt lat="45.06358" lon="6.38415">
        <ele>2929.2</ele>
        <time>2013-05-05T08:14:54Z</time>
      </trkpt>
      <trkpt lat="45.06352" lon="6.38422">
        <ele>2924.3</ele>
        <time>2013-05-05T08:14:58Z</time>
      </trkpt>
      <trkpt lat="45.06345" lon="6.38428">
        <ele>2913.9</ele>
        <time>2013-05-05T08:15:46Z</time>
      </trkpt>
      <trkpt lat="45.06343" lon="6.38428">
        <ele>2913.8</ele>
        <time>2013-05-05T08:15:47Z</time>
      </trkpt>
      <trkpt lat="45.06333" lon="6.38443">
        <ele>2909.7</ele>
        <time>2013-05-05T08:15:53Z</time>
      </trkpt>
      <trkpt lat="45.06329" lon="6.3845">
        <ele>2906.8</ele>
        <time>2013-05-05T08:15:55Z</time>
      </trkpt>
      <trkpt lat="45.06325" lon="6.38458">
        <ele>2904.7</ele>
        <time>2013-05-05T08:15:57Z</time>
      </trkpt>
      <trkpt lat="45.0632" lon="6.38463">
        <ele>2901.3</ele>
        <time>2013-05-05T08:15:59Z</time>
      </trkpt>
      <trkpt lat="45.06317" lon="6.38474">
        <ele>2894.1</ele>
        <time>2013-05-05T08:16:02Z</time>
      </trkpt>
      <trkpt lat="45.06318" lon="6.38487">
        <ele>2879.6</ele>
        <time>2013-05-05T08:16:30Z</time>
      </trkpt>
      <trkpt lat="45.06316" lon="6.38497">
        <ele>2878.7</ele>
        <time>2013-05-05T08:17:25Z</time>
      </trkpt>
      <trkpt lat="45.06317" lon="6.385">
        <ele>2878.2</ele>
        <time>2013-05-05T08:17:26Z</time>
      </trkpt>
      <trkpt lat="45.06309" lon="6.38515">
        <ele>2873</ele>
        <time>2013-05-05T08:17:31Z</time>
      </trkpt>
      <trkpt lat="45.06308" lon="6.38524">
        <ele>2870.7</ele>
        <time>2013-05-05T08:17:33Z</time>
      </trkpt>
      <trkpt lat="45.06311" lon="6.38535">
        <ele>2868.2</ele>
        <time>2013-05-05T08:17:35Z</time>
      </trkpt>
      <trkpt lat="45.06315" lon="6.38546">
        <ele>2865.5</ele>
        <time>2013-05-05T08:17:37Z</time>
      </trkpt>
      <trkpt lat="45.06319" lon="6.38554">
        <ele>2863.4</ele>
        <time>2013-05-05T08:17:39Z</time>
      </trkpt>
      <trkpt lat="45.06323" lon="6.38562">
        <ele>2862.4</ele>
        <time>2013-05-05T08:17:41Z</time>
      </trkpt>
      <trkpt lat="45.06327" lon="6.38571">
        <ele>2861.2</ele>
        <time>2013-05-05T08:17:43Z</time>
      </trkpt>
      <trkpt lat="45.06332" lon="6.38581">
        <ele>2860.7</ele>
        <time>2013-05-05T08:17:45Z</time>
      </trkpt>
      <trkpt lat="45.06338" lon="6.3859">
        <ele>2859.8</ele>
        <time>2013-05-05T08:17:47Z</time>
      </trkpt>
      <trkpt lat="45.0634" lon="6.38595">
        <ele>2859.2</ele>
        <time>2013-05-05T08:17:48Z</time>
      </trkpt>
      <trkpt lat="45.06343" lon="6.38601">
        <ele>2858.4</ele>
        <time>2013-05-05T08:17:49Z</time>
      </trkpt>
      <trkpt lat="45.06345" lon="6.38608">
        <ele>2857.9</ele>
        <time>2013-05-05T08:17:50Z</time>
      </trkpt>
      <trkpt lat="45.06347" lon="6.38615">
        <ele>2857.3</ele>
        <time>2013-05-05T08:17:51Z</time>
      </trkpt>
      <trkpt lat="45.0635" lon="6.38622">
        <ele>2856.9</ele>
        <time>2013-05-05T08:17:52Z</time>
      </trkpt>
      <trkpt lat="45.06353" lon="6.38629">
        <ele>2856.6</ele>
        <time>2013-05-05T08:17:53Z</time>
      </trkpt>
      <trkpt lat="45.06356" lon="6.38636">
        <ele>2855.8</ele>
        <time>2013-05-05T08:17:54Z</time>
      </trkpt>
      <trkpt lat="45.06359" lon="6.38641">
        <ele>2855.1</ele>
        <time>2013-05-05T08:17:55Z</time>
      </trkpt>
      <trkpt lat="45.06365" lon="6.3865">
        <ele>2853.8</ele>
        <time>2013-05-05T08:17:57Z</time>
      </trkpt>
      <trkpt lat="45.06363" lon="6.38662">
        <ele>2851.9</ele>
        <time>2013-05-05T08:18:00Z</time>
      </trkpt>
      <trkpt lat="45.06367" lon="6.38672">
        <ele>2848.6</ele>
        <time>2013-05-05T08:18:28Z</time>
      </trkpt>
      <trkpt lat="45.06368" lon="6.38675">
        <ele>2848.7</ele>
        <time>2013-05-05T08:18:29Z</time>
      </trkpt>
      <trkpt lat="45.0637" lon="6.38686">
        <ele>2847.9</ele>
        <time>2013-05-05T08:18:31Z</time>
      </trkpt>
      <trkpt lat="45.06371" lon="6.38693">
        <ele>2848.1</ele>
        <time>2013-05-05T08:18:32Z</time>
      </trkpt>
      <trkpt lat="45.0637" lon="6.387">
        <ele>2848.3</ele>
        <time>2013-05-05T08:18:33Z</time>
      </trkpt>
      <trkpt lat="45.06368" lon="6.38706">
        <ele>2847.8</ele>
        <time>2013-05-05T08:18:34Z</time>
      </trkpt>
      <trkpt lat="45.06367" lon="6.38713">
        <ele>2847.5</ele>
        <time>2013-05-05T08:18:35Z</time>
      </trkpt>
      <trkpt lat="45.06368" lon="6.3872">
        <ele>2847.3</ele>
        <time>2013-05-05T08:18:36Z</time>
      </trkpt>
      <trkpt lat="45.06371" lon="6.38727">
        <ele>2845.9</ele>
        <time>2013-05-05T08:18:37Z</time>
      </trkpt>
      <trkpt lat="45.06374" lon="6.38734">
        <ele>2844.9</ele>
        <time>2013-05-05T08:18:38Z</time>
      </trkpt>
      <trkpt lat="45.06378" lon="6.38743">
        <ele>2843.5</ele>
        <time>2013-05-05T08:18:39Z</time>
      </trkpt>
      <trkpt lat="45.06382" lon="6.38751">
        <ele>2842.4</ele>
        <time>2013-05-05T08:18:40Z</time>
      </trkpt>
      <trkpt lat="45.06387" lon="6.38759">
        <ele>2841.2</ele>
        <time>2013-05-05T08:18:41Z</time>
      </trkpt>
      <trkpt lat="45.06391" lon="6.38769">
        <ele>2840.3</ele>
        <time>2013-05-05T08:18:42Z</time>
      </trkpt>
      <trkpt lat="45.06394" lon="6.38779">
        <ele>2839.6</ele>
        <time>2013-05-05T08:18:43Z</time>
      </trkpt>
      <trkpt lat="45.06397" lon="6.3879">
        <ele>2838.8</ele>
        <time>2013-05-05T08:18:44Z</time>
      </trkpt>
      <trkpt lat="45.06398" lon="6.38801">
        <ele>2838.1</ele>
        <time>2013-05-05T08:18:45Z</time>
      </trkpt>
      <trkpt lat="45.06398" lon="6.38811">
        <ele>2837.5</ele>
        <time>2013-05-05T08:18:46Z</time>
      </trkpt>
      <trkpt lat="45.06398" lon="6.38821">
        <ele>2837</ele>
        <time>2013-05-05T08:18:47Z</time>
      </trkpt>
      <trkpt lat="45.06397" lon="6.38829">
        <ele>2836.1</ele>
        <time>2013-05-05T08:18:48Z</time>
      </trkpt>
      <trkpt lat="45.06397" lon="6.38836">
        <ele>2835.5</ele>
        <time>2013-05-05T08:18:49Z</time>
      </trkpt>
      <trkpt lat="45.06389" lon="6.38842">
        <ele>2834</ele>
        <time>2013-05-05T08:18:52Z</time>
      </trkpt>
      <trkpt lat="45.06382" lon="6.38847">
        <ele>2831.8</ele>
        <time>2013-05-05T08:18:54Z</time>
      </trkpt>
      <trkpt lat="45.06374" lon="6.3885">
        <ele>2829.8</ele>
        <time>2013-05-05T08:18:56Z</time>
      </trkpt>
      <trkpt lat="45.06371" lon="6.38856">
        <ele>2828.9</ele>
        <time>2013-05-05T08:18:57Z</time>
      </trkpt>
      <trkpt lat="45.06367" lon="6.38863">
        <ele>2827.9</ele>
        <time>2013-05-05T08:18:58Z</time>
      </trkpt>
      <trkpt lat="45.06363" lon="6.3887">
        <ele>2827.3</ele>
        <time>2013-05-05T08:18:59Z</time>
      </trkpt>
      <trkpt lat="45.0636" lon="6.38877">
        <ele>2826.3</ele>
        <time>2013-05-05T08:19:00Z</time>
      </trkpt>
      <trkpt lat="45.06357" lon="6.38884">
        <ele>2825.5</ele>
        <time>2013-05-05T08:19:01Z</time>
      </trkpt>
      <trkpt lat="45.06354" lon="6.38891">
        <ele>2825</ele>
        <time>2013-05-05T08:19:02Z</time>
      </trkpt>
      <trkpt lat="45.06352" lon="6.38898">
        <ele>2824.4</ele>
        <time>2013-05-05T08:19:03Z</time>
      </trkpt>
      <trkpt lat="45.0635" lon="6.38905">
        <ele>2823.9</ele>
        <time>2013-05-05T08:19:04Z</time>
      </trkpt>
      <trkpt lat="45.06343" lon="6.38911">
        <ele>2821.5</ele>
        <time>2013-05-05T08:19:06Z</time>
      </trkpt>
      <trkpt lat="45.06337" lon="6.38916">
        <ele>2819.1</ele>
        <time>2013-05-05T08:19:08Z</time>
      </trkpt>
      <trkpt lat="45.06331" lon="6.3892">
        <ele>2817.1</ele>
        <time>2013-05-05T08:19:10Z</time>
      </trkpt>
      <trkpt lat="45.06325" lon="6.38926">
        <ele>2814.6</ele>
        <time>2013-05-05T08:19:12Z</time>
      </trkpt>
      <trkpt lat="45.06318" lon="6.38933">
        <ele>2812.6</ele>
        <time>2013-05-05T08:19:14Z</time>
      </trkpt>
      <trkpt lat="45.06311" lon="6.38937">
        <ele>2810.2</ele>
        <time>2013-05-05T08:19:16Z</time>
      </trkpt>
      <trkpt lat="45.06304" lon="6.38938">
        <ele>2807</ele>
        <time>2013-05-05T08:19:18Z</time>
      </trkpt>
      <trkpt lat="45.06298" lon="6.38943">
        <ele>2802.7</ele>
        <time>2013-05-05T08:19:20Z</time>
      </trkpt>
      <trkpt lat="45.0629" lon="6.38943">
        <ele>2799.2</ele>
        <time>2013-05-05T08:19:22Z</time>
      </trkpt>
      <trkpt lat="45.06286" lon="6.38946">
        <ele>2797.7</ele>
        <time>2013-05-05T08:19:23Z</time>
      </trkpt>
      <trkpt lat="45.06282" lon="6.38952">
        <ele>2795.7</ele>
        <time>2013-05-05T08:19:24Z</time>
      </trkpt>
      <trkpt lat="45.06278" lon="6.38959">
        <ele>2794.2</ele>
        <time>2013-05-05T08:19:25Z</time>
      </trkpt>
      <trkpt lat="45.06275" lon="6.38968">
        <ele>2792.3</ele>
        <time>2013-05-05T08:19:26Z</time>
      </trkpt>
      <trkpt lat="45.06271" lon="6.38977">
        <ele>2790.8</ele>
        <time>2013-05-05T08:19:27Z</time>
      </trkpt>
      <trkpt lat="45.06267" lon="6.38986">
        <ele>2789.7</ele>
        <time>2013-05-05T08:19:28Z</time>
      </trkpt>
      <trkpt lat="45.06264" lon="6.38996">
        <ele>2788.5</ele>
        <time>2013-05-05T08:19:29Z</time>
      </trkpt>
      <trkpt lat="45.0626" lon="6.39005">
        <ele>2787.6</ele>
        <time>2013-05-05T08:19:30Z</time>
      </trkpt>
      <trkpt lat="45.06258" lon="6.39015">
        <ele>2786.3</ele>
        <time>2013-05-05T08:19:31Z</time>
      </trkpt>
      <trkpt lat="45.06255" lon="6.39025">
        <ele>2785.4</ele>
        <time>2013-05-05T08:19:32Z</time>
      </trkpt>
      <trkpt lat="45.06254" lon="6.39034">
        <ele>2784.7</ele>
        <time>2013-05-05T08:19:33Z</time>
      </trkpt>
      <trkpt lat="45.06252" lon="6.39042">
        <ele>2783.6</ele>
        <time>2013-05-05T08:19:34Z</time>
      </trkpt>
      <trkpt lat="45.06251" lon="6.39051">
        <ele>2782.8</ele>
        <time>2013-05-05T08:19:35Z</time>
      </trkpt>
      <trkpt lat="45.06248" lon="6.39058">
        <ele>2781.6</ele>
        <time>2013-05-05T08:19:36Z</time>
      </trkpt>
      <trkpt lat="45.06243" lon="6.3906">
        <ele>2780.8</ele>
        <time>2013-05-05T08:19:37Z</time>
      </trkpt>
      <trkpt lat="45.0624" lon="6.39065">
        <ele>2779.9</ele>
        <time>2013-05-05T08:19:38Z</time>
      </trkpt>
      <trkpt lat="45.06237" lon="6.39071">
        <ele>2779.2</ele>
        <time>2013-05-05T08:19:39Z</time>
      </trkpt>
      <trkpt lat="45.06232" lon="6.39072">
        <ele>2778.7</ele>
        <time>2013-05-05T08:19:40Z</time>
      </trkpt>
      <trkpt lat="45.06228" lon="6.39075">
        <ele>2777.5</ele>
        <time>2013-05-05T08:19:41Z</time>
      </trkpt>
      <trkpt lat="45.06224" lon="6.3908">
        <ele>2776.6</ele>
        <time>2013-05-05T08:19:42Z</time>
      </trkpt>
      <trkpt lat="45.06219" lon="6.39082">
        <ele>2775.6</ele>
        <time>2013-05-05T08:19:43Z</time>
      </trkpt>
      <trkpt lat="45.06214" lon="6.39086">
        <ele>2774.8</ele>
        <time>2013-05-05T08:19:44Z</time>
      </trkpt>
      <trkpt lat="45.06211" lon="6.39092">
        <ele>2773.6</ele>
        <time>2013-05-05T08:19:45Z</time>
      </trkpt>
      <trkpt lat="45.06207" lon="6.39098">
        <ele>2772.7</ele>
        <time>2013-05-05T08:19:46Z</time>
      </trkpt>
      <trkpt lat="45.06203" lon="6.39098">
        <ele>2772</ele>
        <time>2013-05-05T08:19:47Z</time>
      </trkpt>
      <trkpt lat="45.06198" lon="6.39101">
        <ele>2770.5</ele>
        <time>2013-05-05T08:19:48Z</time>
      </trkpt>
      <trkpt lat="45.06196" lon="6.39107">
        <ele>2769.4</ele>
        <time>2013-05-05T08:19:49Z</time>
      </trkpt>
      <trkpt lat="45.06193" lon="6.39112">
        <ele>2768.4</ele>
        <time>2013-05-05T08:19:50Z</time>
      </trkpt>
      <trkpt lat="45.06188" lon="6.39116">
        <ele>2767.8</ele>
        <time>2013-05-05T08:19:51Z</time>
      </trkpt>
      <trkpt lat="45.06186" lon="6.39123">
        <ele>2767.2</ele>
        <time>2013-05-05T08:19:52Z</time>
      </trkpt>
      <trkpt lat="45.06184" lon="6.3913">
        <ele>2765.4</ele>
        <time>2013-05-05T08:19:53Z</time>
      </trkpt>
      <trkpt lat="45.06183" lon="6.39136">
        <ele>2764</ele>
        <time>2013-05-05T08:19:54Z</time>
      </trkpt>
      <trkpt lat="45.06179" lon="6.3914">
        <ele>2762.6</ele>
        <time>2013-05-05T08:19:55Z</time>
      </trkpt>
      <trkpt lat="45.06171" lon="6.39144">
        <ele>2759.7</ele>
        <time>2013-05-05T08:19:57Z</time>
      </trkpt>
      <trkpt lat="45.06167" lon="6.39156">
        <ele>2754</ele>
        <time>2013-05-05T08:20:26Z</time>
      </trkpt>
      <trkpt lat="45.06167" lon="6.39165">
        <ele>2752.4</ele>
        <time>2013-05-05T08:21:05Z</time>
      </trkpt>
      <trkpt lat="45.06165" lon="6.39169">
        <ele>2752.7</ele>
        <time>2013-05-05T08:21:06Z</time>
      </trkpt>
      <trkpt lat="45.0616" lon="6.39181">
        <ele>2752.4</ele>
        <time>2013-05-05T08:21:08Z</time>
      </trkpt>
      <trkpt lat="45.06155" lon="6.39188">
        <ele>2751.8</ele>
        <time>2013-05-05T08:21:10Z</time>
      </trkpt>
      <trkpt lat="45.06148" lon="6.39194">
        <ele>2750.6</ele>
        <time>2013-05-05T08:21:12Z</time>
      </trkpt>
      <trkpt lat="45.0614" lon="6.39196">
        <ele>2748.5</ele>
        <time>2013-05-05T08:21:14Z</time>
      </trkpt>
      <trkpt lat="45.06136" lon="6.39203">
        <ele>2747.7</ele>
        <time>2013-05-05T08:21:15Z</time>
      </trkpt>
      <trkpt lat="45.06131" lon="6.39207">
        <ele>2746.5</ele>
        <time>2013-05-05T08:21:16Z</time>
      </trkpt>
      <trkpt lat="45.06124" lon="6.39212">
        <ele>2743.6</ele>
        <time>2013-05-05T08:21:18Z</time>
      </trkpt>
      <trkpt lat="45.06119" lon="6.3921">
        <ele>2742</ele>
        <time>2013-05-05T08:21:19Z</time>
      </trkpt>
      <trkpt lat="45.06115" lon="6.39213">
        <ele>2739.7</ele>
        <time>2013-05-05T08:21:20Z</time>
      </trkpt>
      <trkpt lat="45.06111" lon="6.39218">
        <ele>2738</ele>
        <time>2013-05-05T08:21:21Z</time>
      </trkpt>
      <trkpt lat="45.06107" lon="6.39225">
        <ele>2736.7</ele>
        <time>2013-05-05T08:21:22Z</time>
      </trkpt>
      <trkpt lat="45.06104" lon="6.39235">
        <ele>2734.1</ele>
        <time>2013-05-05T08:21:24Z</time>
      </trkpt>
      <trkpt lat="45.06101" lon="6.39245">
        <ele>2732.8</ele>
        <time>2013-05-05T08:21:26Z</time>
      </trkpt>
      <trkpt lat="45.061" lon="6.39252">
        <ele>2732.4</ele>
        <time>2013-05-05T08:21:27Z</time>
      </trkpt>
      <trkpt lat="45.061" lon="6.3926">
        <ele>2732.4</ele>
        <time>2013-05-05T08:21:28Z</time>
      </trkpt>
      <trkpt lat="45.061" lon="6.39268">
        <ele>2732.3</ele>
        <time>2013-05-05T08:21:29Z</time>
      </trkpt>
      <trkpt lat="45.06098" lon="6.39274">
        <ele>2731.6</ele>
        <time>2013-05-05T08:21:30Z</time>
      </trkpt>
      <trkpt lat="45.06094" lon="6.39279">
        <ele>2731</ele>
        <time>2013-05-05T08:21:31Z</time>
      </trkpt>
      <trkpt lat="45.06092" lon="6.39285">
        <ele>2729.5</ele>
        <time>2013-05-05T08:21:32Z</time>
      </trkpt>
      <trkpt lat="45.06088" lon="6.39289">
        <ele>2728.4</ele>
        <time>2013-05-05T08:21:33Z</time>
      </trkpt>
      <trkpt lat="45.06084" lon="6.39294">
        <ele>2727.6</ele>
        <time>2013-05-05T08:21:34Z</time>
      </trkpt>
      <trkpt lat="45.06082" lon="6.39301">
        <ele>2725.8</ele>
        <time>2013-05-05T08:21:35Z</time>
      </trkpt>
      <trkpt lat="45.06078" lon="6.39305">
        <ele>2724.5</ele>
        <time>2013-05-05T08:21:36Z</time>
      </trkpt>
      <trkpt lat="45.06074" lon="6.3931">
        <ele>2722.2</ele>
        <time>2013-05-05T08:21:37Z</time>
      </trkpt>
      <trkpt lat="45.06071" lon="6.39316">
        <ele>2720.4</ele>
        <time>2013-05-05T08:21:38Z</time>
      </trkpt>
      <trkpt lat="45.06067" lon="6.3932">
        <ele>2718.2</ele>
        <time>2013-05-05T08:21:39Z</time>
      </trkpt>
      <trkpt lat="45.06065" lon="6.39326">
        <ele>2716.6</ele>
        <time>2013-05-05T08:21:40Z</time>
      </trkpt>
      <trkpt lat="45.06061" lon="6.39331">
        <ele>2715.3</ele>
        <time>2013-05-05T08:21:41Z</time>
      </trkpt>
      <trkpt lat="45.06054" lon="6.39339">
        <ele>2713</ele>
        <time>2013-05-05T08:21:43Z</time>
      </trkpt>
      <trkpt lat="45.0605" lon="6.39344">
        <ele>2711.4</ele>
        <time>2013-05-05T08:21:44Z</time>
      </trkpt>
      <trkpt lat="45.06043" lon="6.39351">
        <ele>2708.5</ele>
        <time>2013-05-05T08:21:46Z</time>
      </trkpt>
      <trkpt lat="45.06039" lon="6.39356">
        <ele>2707.1</ele>
        <time>2013-05-05T08:21:47Z</time>
      </trkpt>
      <trkpt lat="45.06033" lon="6.39358">
        <ele>2706.1</ele>
        <time>2013-05-05T08:21:48Z</time>
      </trkpt>
      <trkpt lat="45.06029" lon="6.39362">
        <ele>2704.2</ele>
        <time>2013-05-05T08:21:49Z</time>
      </trkpt>
      <trkpt lat="45.06024" lon="6.39368">
        <ele>2702.7</ele>
        <time>2013-05-05T08:21:50Z</time>
      </trkpt>
      <trkpt lat="45.06018" lon="6.39368">
        <ele>2700</ele>
        <time>2013-05-05T08:21:51Z</time>
      </trkpt>
      <trkpt lat="45.06014" lon="6.39372">
        <ele>2698</ele>
        <time>2013-05-05T08:21:52Z</time>
      </trkpt>
      <trkpt lat="45.06009" lon="6.39378">
        <ele>2696.5</ele>
        <time>2013-05-05T08:21:53Z</time>
      </trkpt>
      <trkpt lat="45.06003" lon="6.39378">
        <ele>2694.5</ele>
        <time>2013-05-05T08:21:54Z</time>
      </trkpt>
      <trkpt lat="45.05998" lon="6.39381">
        <ele>2693.1</ele>
        <time>2013-05-05T08:21:55Z</time>
      </trkpt>
      <trkpt lat="45.05993" lon="6.39388">
        <ele>2691</ele>
        <time>2013-05-05T08:21:56Z</time>
      </trkpt>
      <trkpt lat="45.05988" lon="6.39393">
        <ele>2689.4</ele>
        <time>2013-05-05T08:21:57Z</time>
      </trkpt>
      <trkpt lat="45.05982" lon="6.39395">
        <ele>2687.2</ele>
        <time>2013-05-05T08:21:58Z</time>
      </trkpt>
      <trkpt lat="45.05978" lon="6.394">
        <ele>2685.5</ele>
        <time>2013-05-05T08:21:59Z</time>
      </trkpt>
      <trkpt lat="45.05974" lon="6.39406">
        <ele>2684.2</ele>
        <time>2013-05-05T08:22:00Z</time>
      </trkpt>
      <trkpt lat="45.0597" lon="6.39408">
        <ele>2682.8</ele>
        <time>2013-05-05T08:22:01Z</time>
      </trkpt>
      <trkpt lat="45.05966" lon="6.39412">
        <ele>2681.6</ele>
        <time>2013-05-05T08:22:02Z</time>
      </trkpt>
      <trkpt lat="45.05962" lon="6.39418">
        <ele>2680.3</ele>
        <time>2013-05-05T08:22:03Z</time>
      </trkpt>
      <trkpt lat="45.05957" lon="6.39421">
        <ele>2679.2</ele>
        <time>2013-05-05T08:22:04Z</time>
      </trkpt>
      <trkpt lat="45.05952" lon="6.39422">
        <ele>2678.4</ele>
        <time>2013-05-05T08:22:05Z</time>
      </trkpt>
      <trkpt lat="45.05947" lon="6.39427">
        <ele>2677</ele>
        <time>2013-05-05T08:22:06Z</time>
      </trkpt>
      <trkpt lat="45.05942" lon="6.39432">
        <ele>2676</ele>
        <time>2013-05-05T08:22:07Z</time>
      </trkpt>
      <trkpt lat="45.05937" lon="6.39433">
        <ele>2675</ele>
        <time>2013-05-05T08:22:08Z</time>
      </trkpt>
      <trkpt lat="45.05932" lon="6.39436">
        <ele>2674.3</ele>
        <time>2013-05-05T08:22:09Z</time>
      </trkpt>
      <trkpt lat="45.05927" lon="6.39442">
        <ele>2672.8</ele>
        <time>2013-05-05T08:22:10Z</time>
      </trkpt>
      <trkpt lat="45.05921" lon="6.39444">
        <ele>2671.7</ele>
        <time>2013-05-05T08:22:11Z</time>
      </trkpt>
      <trkpt lat="45.05917" lon="6.39449">
        <ele>2670.8</ele>
        <time>2013-05-05T08:22:12Z</time>
      </trkpt>
      <trkpt lat="45.05912" lon="6.39454">
        <ele>2669.2</ele>
        <time>2013-05-05T08:22:13Z</time>
      </trkpt>
      <trkpt lat="45.05907" lon="6.39456">
        <ele>2668</ele>
        <time>2013-05-05T08:22:14Z</time>
      </trkpt>
      <trkpt lat="45.05902" lon="6.39461">
        <ele>2665.9</ele>
        <time>2013-05-05T08:22:15Z</time>
      </trkpt>
      <trkpt lat="45.05896" lon="6.39462">
        <ele>2664.3</ele>
        <time>2013-05-05T08:22:16Z</time>
      </trkpt>
      <trkpt lat="45.05892" lon="6.39459">
        <ele>2662.5</ele>
        <time>2013-05-05T08:22:17Z</time>
      </trkpt>
      <trkpt lat="45.05887" lon="6.39461">
        <ele>2661.2</ele>
        <time>2013-05-05T08:22:18Z</time>
      </trkpt>
      <trkpt lat="45.05882" lon="6.39465">
        <ele>2660.1</ele>
        <time>2013-05-05T08:22:19Z</time>
      </trkpt>
      <trkpt lat="45.05876" lon="6.39465">
        <ele>2658.2</ele>
        <time>2013-05-05T08:22:20Z</time>
      </trkpt>
      <trkpt lat="45.05871" lon="6.39466">
        <ele>2656.7</ele>
        <time>2013-05-05T08:22:21Z</time>
      </trkpt>
      <trkpt lat="45.05867" lon="6.3947">
        <ele>2655</ele>
        <time>2013-05-05T08:22:22Z</time>
      </trkpt>
      <trkpt lat="45.0586" lon="6.39468">
        <ele>2651.8</ele>
        <time>2013-05-05T08:22:24Z</time>
      </trkpt>
      <trkpt lat="45.0586" lon="6.39455">
        <ele>2645.4</ele>
        <time>2013-05-05T08:23:45Z</time>
      </trkpt>
      <trkpt lat="45.0586" lon="6.39455">
        <ele>2645.6</ele>
        <time>2013-05-05T08:23:46Z</time>
      </trkpt>
      <trkpt lat="45.05851" lon="6.39466">
        <ele>2645.3</ele>
        <time>2013-05-05T08:23:54Z</time>
      </trkpt>
      <trkpt lat="45.05849" lon="6.39473">
        <ele>2645.5</ele>
        <time>2013-05-05T08:23:55Z</time>
      </trkpt>
      <trkpt lat="45.05845" lon="6.39477">
        <ele>2645.6</ele>
        <time>2013-05-05T08:23:56Z</time>
      </trkpt>
      <trkpt lat="45.05841" lon="6.39483">
        <ele>2645.2</ele>
        <time>2013-05-05T08:23:57Z</time>
      </trkpt>
      <trkpt lat="45.0584" lon="6.39491">
        <ele>2645</ele>
        <time>2013-05-05T08:23:58Z</time>
      </trkpt>
      <trkpt lat="45.05836" lon="6.39498">
        <ele>2643.4</ele>
        <time>2013-05-05T08:23:59Z</time>
      </trkpt>
      <trkpt lat="45.05832" lon="6.39503">
        <ele>2642.2</ele>
        <time>2013-05-05T08:24:00Z</time>
      </trkpt>
      <trkpt lat="45.05828" lon="6.39509">
        <ele>2641.3</ele>
        <time>2013-05-05T08:24:01Z</time>
      </trkpt>
      <trkpt lat="45.05824" lon="6.39514">
        <ele>2640.2</ele>
        <time>2013-05-05T08:24:02Z</time>
      </trkpt>
      <trkpt lat="45.05819" lon="6.3952">
        <ele>2639.4</ele>
        <time>2013-05-05T08:24:03Z</time>
      </trkpt>
      <trkpt lat="45.05815" lon="6.39526">
        <ele>2637.7</ele>
        <time>2013-05-05T08:24:04Z</time>
      </trkpt>
      <trkpt lat="45.0581" lon="6.39531">
        <ele>2636.5</ele>
        <time>2013-05-05T08:24:05Z</time>
      </trkpt>
      <trkpt lat="45.05805" lon="6.39538">
        <ele>2634.1</ele>
        <time>2013-05-05T08:24:06Z</time>
      </trkpt>
      <trkpt lat="45.058" lon="6.39544">
        <ele>2632.2</ele>
        <time>2013-05-05T08:24:07Z</time>
      </trkpt>
      <trkpt lat="45.05795" lon="6.39549">
        <ele>2630.9</ele>
        <time>2013-05-05T08:24:08Z</time>
      </trkpt>
      <trkpt lat="45.05792" lon="6.39557">
        <ele>2629</ele>
        <time>2013-05-05T08:24:09Z</time>
      </trkpt>
      <trkpt lat="45.05788" lon="6.39562">
        <ele>2627.7</ele>
        <time>2013-05-05T08:24:10Z</time>
      </trkpt>
      <trkpt lat="45.05785" lon="6.3957">
        <ele>2625.6</ele>
        <time>2013-05-05T08:24:11Z</time>
      </trkpt>
      <trkpt lat="45.05781" lon="6.39574">
        <ele>2624</ele>
        <time>2013-05-05T08:24:12Z</time>
      </trkpt>
      <trkpt lat="45.05777" lon="6.39578">
        <ele>2622.8</ele>
        <time>2013-05-05T08:24:13Z</time>
      </trkpt>
      <trkpt lat="45.05774" lon="6.39583">
        <ele>2621.1</ele>
        <time>2013-05-05T08:24:14Z</time>
      </trkpt>
      <trkpt lat="45.05769" lon="6.39587">
        <ele>2619.8</ele>
        <time>2013-05-05T08:24:15Z</time>
      </trkpt>
      <trkpt lat="45.05767" lon="6.39594">
        <ele>2616.8</ele>
        <time>2013-05-05T08:24:16Z</time>
      </trkpt>
      <trkpt lat="45.05766" lon="6.39602">
        <ele>2614.6</ele>
        <time>2013-05-05T08:24:17Z</time>
      </trkpt>
      <trkpt lat="45.05762" lon="6.39607">
        <ele>2612.2</ele>
        <time>2013-05-05T08:24:18Z</time>
      </trkpt>
      <trkpt lat="45.05759" lon="6.39615">
        <ele>2610.5</ele>
        <time>2013-05-05T08:24:19Z</time>
      </trkpt>
      <trkpt lat="45.05753" lon="6.39619">
        <ele>2609.1</ele>
        <time>2013-05-05T08:24:20Z</time>
      </trkpt>
      <trkpt lat="45.0575" lon="6.39627">
        <ele>2606.2</ele>
        <time>2013-05-05T08:24:21Z</time>
      </trkpt>
      <trkpt lat="45.05749" lon="6.39637">
        <ele>2604</ele>
        <time>2013-05-05T08:24:22Z</time>
      </trkpt>
      <trkpt lat="45.05744" lon="6.39644">
        <ele>2601.1</ele>
        <time>2013-05-05T08:24:23Z</time>
      </trkpt>
      <trkpt lat="45.0574" lon="6.39653">
        <ele>2598.9</ele>
        <time>2013-05-05T08:24:24Z</time>
      </trkpt>
      <trkpt lat="45.05738" lon="6.39661">
        <ele>2596.3</ele>
        <time>2013-05-05T08:24:25Z</time>
      </trkpt>
      <trkpt lat="45.05736" lon="6.39669">
        <ele>2594.4</ele>
        <time>2013-05-05T08:24:26Z</time>
      </trkpt>
      <trkpt lat="45.05734" lon="6.39677">
        <ele>2592.9</ele>
        <time>2013-05-05T08:24:27Z</time>
      </trkpt>
      <trkpt lat="45.05732" lon="6.39685">
        <ele>2591.5</ele>
        <time>2013-05-05T08:24:28Z</time>
      </trkpt>
      <trkpt lat="45.0573" lon="6.39692">
        <ele>2590.4</ele>
        <time>2013-05-05T08:24:29Z</time>
      </trkpt>
      <trkpt lat="45.05728" lon="6.397">
        <ele>2589.5</ele>
        <time>2013-05-05T08:24:30Z</time>
      </trkpt>
      <trkpt lat="45.05727" lon="6.39707">
        <ele>2588.9</ele>
        <time>2013-05-05T08:24:31Z</time>
      </trkpt>
      <trkpt lat="45.05725" lon="6.39715">
        <ele>2588.4</ele>
        <time>2013-05-05T08:24:32Z</time>
      </trkpt>
      <trkpt lat="45.05723" lon="6.39723">
        <ele>2587.4</ele>
        <time>2013-05-05T08:24:33Z</time>
      </trkpt>
      <trkpt lat="45.05722" lon="6.39731">
        <ele>2586.7</ele>
        <time>2013-05-05T08:24:34Z</time>
      </trkpt>
      <trkpt lat="45.05721" lon="6.39738">
        <ele>2585.4</ele>
        <time>2013-05-05T08:24:35Z</time>
      </trkpt>
      <trkpt lat="45.05719" lon="6.39746">
        <ele>2584.3</ele>
        <time>2013-05-05T08:24:36Z</time>
      </trkpt>
      <trkpt lat="45.05715" lon="6.39749">
        <ele>2583.5</ele>
        <time>2013-05-05T08:24:37Z</time>
      </trkpt>
      <trkpt lat="45.05707" lon="6.39753">
        <ele>2582.4</ele>
        <time>2013-05-05T08:24:39Z</time>
      </trkpt>
      <trkpt lat="45.05702" lon="6.39756">
        <ele>2581.3</ele>
        <time>2013-05-05T08:24:40Z</time>
      </trkpt>
      <trkpt lat="45.05697" lon="6.39755">
        <ele>2580.4</ele>
        <time>2013-05-05T08:24:41Z</time>
      </trkpt>
      <trkpt lat="45.05693" lon="6.3976">
        <ele>2578.6</ele>
        <time>2013-05-05T08:24:42Z</time>
      </trkpt>
      <trkpt lat="45.05688" lon="6.39761">
        <ele>2577.3</ele>
        <time>2013-05-05T08:24:43Z</time>
      </trkpt>
      <trkpt lat="45.05683" lon="6.39761">
        <ele>2574.9</ele>
        <time>2013-05-05T08:24:44Z</time>
      </trkpt>
      <trkpt lat="45.05679" lon="6.39766">
        <ele>2573.1</ele>
        <time>2013-05-05T08:24:45Z</time>
      </trkpt>
      <trkpt lat="45.05676" lon="6.39773">
        <ele>2571.8</ele>
        <time>2013-05-05T08:24:46Z</time>
      </trkpt>
      <trkpt lat="45.05672" lon="6.39777">
        <ele>2570.2</ele>
        <time>2013-05-05T08:24:47Z</time>
      </trkpt>
      <trkpt lat="45.05667" lon="6.39782">
        <ele>2568.9</ele>
        <time>2013-05-05T08:24:48Z</time>
      </trkpt>
      <trkpt lat="45.05661" lon="6.39787">
        <ele>2567</ele>
        <time>2013-05-05T08:24:49Z</time>
      </trkpt>
      <trkpt lat="45.05655" lon="6.39791">
        <ele>2565.6</ele>
        <time>2013-05-05T08:24:50Z</time>
      </trkpt>
      <trkpt lat="45.05649" lon="6.39796">
        <ele>2564.5</ele>
        <time>2013-05-05T08:24:51Z</time>
      </trkpt>
      <trkpt lat="45.05642" lon="6.398">
        <ele>2562.3</ele>
        <time>2013-05-05T08:24:52Z</time>
      </trkpt>
      <trkpt lat="45.05638" lon="6.39807">
        <ele>2560.6</ele>
        <time>2013-05-05T08:24:53Z</time>
      </trkpt>
      <trkpt lat="45.05636" lon="6.39815">
        <ele>2557.9</ele>
        <time>2013-05-05T08:24:54Z</time>
      </trkpt>
      <trkpt lat="45.05635" lon="6.39823">
        <ele>2555.9</ele>
        <time>2013-05-05T08:24:55Z</time>
      </trkpt>
      <trkpt lat="45.05635" lon="6.39834">
        <ele>2552.6</ele>
        <time>2013-05-05T08:24:57Z</time>
      </trkpt>
      <trkpt lat="45.0564" lon="6.39845">
        <ele>2546.3</ele>
        <time>2013-05-05T08:25:36Z</time>
      </trkpt>
      <trkpt lat="45.05636" lon="6.39854">
        <ele>2546.1</ele>
        <time>2013-05-05T08:25:39Z</time>
      </trkpt>
      <trkpt lat="45.05629" lon="6.39857">
        <ele>2545.7</ele>
        <time>2013-05-05T08:25:41Z</time>
      </trkpt>
      <trkpt lat="45.05627" lon="6.39869">
        <ele>2545</ele>
        <time>2013-05-05T08:25:43Z</time>
      </trkpt>
      <trkpt lat="45.05625" lon="6.39876">
        <ele>2543.9</ele>
        <time>2013-05-05T08:25:44Z</time>
      </trkpt>
      <trkpt lat="45.05624" lon="6.39883">
        <ele>2543.1</ele>
        <time>2013-05-05T08:25:45Z</time>
      </trkpt>
      <trkpt lat="45.05624" lon="6.39892">
        <ele>2542</ele>
        <time>2013-05-05T08:25:46Z</time>
      </trkpt>
      <trkpt lat="45.05621" lon="6.39896">
        <ele>2541.2</ele>
        <time>2013-05-05T08:25:47Z</time>
      </trkpt>
      <trkpt lat="45.05616" lon="6.39903">
        <ele>2540.6</ele>
        <time>2013-05-05T08:25:48Z</time>
      </trkpt>
      <trkpt lat="45.05615" lon="6.39911">
        <ele>2538.9</ele>
        <time>2013-05-05T08:25:49Z</time>
      </trkpt>
      <trkpt lat="45.05611" lon="6.39918">
        <ele>2537.6</ele>
        <time>2013-05-05T08:25:50Z</time>
      </trkpt>
      <trkpt lat="45.05605" lon="6.39922">
        <ele>2536</ele>
        <time>2013-05-05T08:25:51Z</time>
      </trkpt>
      <trkpt lat="45.05602" lon="6.3993">
        <ele>2534.8</ele>
        <time>2013-05-05T08:25:52Z</time>
      </trkpt>
      <trkpt lat="45.05599" lon="6.39938">
        <ele>2532.2</ele>
        <time>2013-05-05T08:25:53Z</time>
      </trkpt>
      <trkpt lat="45.05595" lon="6.3994">
        <ele>2530.3</ele>
        <time>2013-05-05T08:25:54Z</time>
      </trkpt>
      <trkpt lat="45.0559" lon="6.39945">
        <ele>2528.9</ele>
        <time>2013-05-05T08:25:55Z</time>
      </trkpt>
      <trkpt lat="45.05588" lon="6.39953">
        <ele>2526.5</ele>
        <time>2013-05-05T08:25:56Z</time>
      </trkpt>
      <trkpt lat="45.05585" lon="6.3996">
        <ele>2524.7</ele>
        <time>2013-05-05T08:25:57Z</time>
      </trkpt>
      <trkpt lat="45.05579" lon="6.39964">
        <ele>2522</ele>
        <time>2013-05-05T08:25:58Z</time>
      </trkpt>
      <trkpt lat="45.05575" lon="6.39971">
        <ele>2519.9</ele>
        <time>2013-05-05T08:25:59Z</time>
      </trkpt>
      <trkpt lat="45.0557" lon="6.39978">
        <ele>2517.6</ele>
        <time>2013-05-05T08:26:00Z</time>
      </trkpt>
      <trkpt lat="45.05565" lon="6.39984">
        <ele>2515.8</ele>
        <time>2013-05-05T08:26:01Z</time>
      </trkpt>
      <trkpt lat="45.0556" lon="6.39991">
        <ele>2514.4</ele>
        <time>2013-05-05T08:26:02Z</time>
      </trkpt>
      <trkpt lat="45.05555" lon="6.39997">
        <ele>2511.8</ele>
        <time>2013-05-05T08:26:03Z</time>
      </trkpt>
      <trkpt lat="45.0555" lon="6.40004">
        <ele>2509.8</ele>
        <time>2013-05-05T08:26:04Z</time>
      </trkpt>
      <trkpt lat="45.05545" lon="6.40013">
        <ele>2507.4</ele>
        <time>2013-05-05T08:26:05Z</time>
      </trkpt>
      <trkpt lat="45.0554" lon="6.4002">
        <ele>2505.5</ele>
        <time>2013-05-05T08:26:06Z</time>
      </trkpt>
      <trkpt lat="45.05536" lon="6.40028">
        <ele>2504.2</ele>
        <time>2013-05-05T08:26:07Z</time>
      </trkpt>
      <trkpt lat="45.05531" lon="6.40035">
        <ele>2501.4</ele>
        <time>2013-05-05T08:26:08Z</time>
      </trkpt>
      <trkpt lat="45.05527" lon="6.40043">
        <ele>2499.3</ele>
        <time>2013-05-05T08:26:09Z</time>
      </trkpt>
      <trkpt lat="45.05522" lon="6.40051">
        <ele>2497.3</ele>
        <time>2013-05-05T08:26:10Z</time>
      </trkpt>
      <trkpt lat="45.05517" lon="6.40058">
        <ele>2495.7</ele>
        <time>2013-05-05T08:26:11Z</time>
      </trkpt>
      <trkpt lat="45.05514" lon="6.40067">
        <ele>2493.1</ele>
        <time>2013-05-05T08:26:12Z</time>
      </trkpt>
      <trkpt lat="45.05509" lon="6.40074">
        <ele>2491.2</ele>
        <time>2013-05-05T08:26:13Z</time>
      </trkpt>
      <trkpt lat="45.05506" lon="6.40083">
        <ele>2489.7</ele>
        <time>2013-05-05T08:26:14Z</time>
      </trkpt>
      <trkpt lat="45.05502" lon="6.4009">
        <ele>2487.3</ele>
        <time>2013-05-05T08:26:15Z</time>
      </trkpt>
      <trkpt lat="45.05498" lon="6.40097">
        <ele>2485.4</ele>
        <time>2013-05-05T08:26:16Z</time>
      </trkpt>
      <trkpt lat="45.05497" lon="6.40104">
        <ele>2483.8</ele>
        <time>2013-05-05T08:26:17Z</time>
      </trkpt>
      <trkpt lat="45.05495" lon="6.40111">
        <ele>2482.6</ele>
        <time>2013-05-05T08:26:18Z</time>
      </trkpt>
      <trkpt lat="45.0549" lon="6.40115">
        <ele>2480.4</ele>
        <time>2013-05-05T08:26:19Z</time>
      </trkpt>
      <trkpt lat="45.05488" lon="6.40121">
        <ele>2478.6</ele>
        <time>2013-05-05T08:26:20Z</time>
      </trkpt>
      <trkpt lat="45.05488" lon="6.40134">
        <ele>2475.5</ele>
        <time>2013-05-05T08:26:22Z</time>
      </trkpt>
      <trkpt lat="45.05489" lon="6.40145">
        <ele>2473.1</ele>
        <time>2013-05-05T08:26:24Z</time>
      </trkpt>
      <trkpt lat="45.05484" lon="6.40139">
        <ele>2464.6</ele>
        <time>2013-05-05T08:27:43Z</time>
      </trkpt>
      <trkpt lat="45.05481" lon="6.40139">
        <ele>2464.5</ele>
        <time>2013-05-05T08:27:44Z</time>
      </trkpt>
      <trkpt lat="45.05476" lon="6.40149">
        <ele>2462.9</ele>
        <time>2013-05-05T08:27:46Z</time>
      </trkpt>
      <trkpt lat="45.05471" lon="6.40152">
        <ele>2462.4</ele>
        <time>2013-05-05T08:27:47Z</time>
      </trkpt>
      <trkpt lat="45.05466" lon="6.40155">
        <ele>2462</ele>
        <time>2013-05-05T08:27:48Z</time>
      </trkpt>
      <trkpt lat="45.05463" lon="6.40163">
        <ele>2461.8</ele>
        <time>2013-05-05T08:27:49Z</time>
      </trkpt>
      <trkpt lat="45.05459" lon="6.40169">
        <ele>2460.4</ele>
        <time>2013-05-05T08:27:50Z</time>
      </trkpt>
      <trkpt lat="45.05453" lon="6.40173">
        <ele>2459.3</ele>
        <time>2013-05-05T08:27:51Z</time>
      </trkpt>
      <trkpt lat="45.05448" lon="6.40179">
        <ele>2457.5</ele>
        <time>2013-05-05T08:27:52Z</time>
      </trkpt>
      <trkpt lat="45.05444" lon="6.40186">
        <ele>2456.1</ele>
        <time>2013-05-05T08:27:53Z</time>
      </trkpt>
      <trkpt lat="45.05438" lon="6.40189">
        <ele>2454.4</ele>
        <time>2013-05-05T08:27:54Z</time>
      </trkpt>
      <trkpt lat="45.05432" lon="6.40194">
        <ele>2453.2</ele>
        <time>2013-05-05T08:27:55Z</time>
      </trkpt>
      <trkpt lat="45.05427" lon="6.40199">
        <ele>2452.2</ele>
        <time>2013-05-05T08:27:56Z</time>
      </trkpt>
      <trkpt lat="45.05421" lon="6.40204">
        <ele>2451.1</ele>
        <time>2013-05-05T08:27:57Z</time>
      </trkpt>
      <trkpt lat="45.05419" lon="6.40212">
        <ele>2450.3</ele>
        <time>2013-05-05T08:27:58Z</time>
      </trkpt>
      <trkpt lat="45.05416" lon="6.40218">
        <ele>2448.7</ele>
        <time>2013-05-05T08:27:59Z</time>
      </trkpt>
      <trkpt lat="45.05411" lon="6.40223">
        <ele>2447.5</ele>
        <time>2013-05-05T08:28:00Z</time>
      </trkpt>
      <trkpt lat="45.05408" lon="6.40231">
        <ele>2445.5</ele>
        <time>2013-05-05T08:28:01Z</time>
      </trkpt>
      <trkpt lat="45.05404" lon="6.40236">
        <ele>2444.1</ele>
        <time>2013-05-05T08:28:02Z</time>
      </trkpt>
      <trkpt lat="45.05397" lon="6.40244">
        <ele>2440.9</ele>
        <time>2013-05-05T08:28:04Z</time>
      </trkpt>
      <trkpt lat="45.05397" lon="6.40252">
        <ele>2439.4</ele>
        <time>2013-05-05T08:28:05Z</time>
      </trkpt>
      <trkpt lat="45.05397" lon="6.4026">
        <ele>2438.3</ele>
        <time>2013-05-05T08:28:06Z</time>
      </trkpt>
      <trkpt lat="45.05396" lon="6.40267">
        <ele>2437.4</ele>
        <time>2013-05-05T08:28:07Z</time>
      </trkpt>
      <trkpt lat="45.05395" lon="6.40278">
        <ele>2436.2</ele>
        <time>2013-05-05T08:28:09Z</time>
      </trkpt>
      <trkpt lat="45.05393" lon="6.40288">
        <ele>2434</ele>
        <time>2013-05-05T08:28:12Z</time>
      </trkpt>
      <trkpt lat="45.0539" lon="6.40298">
        <ele>2432.5</ele>
        <time>2013-05-05T08:28:15Z</time>
      </trkpt>
      <trkpt lat="45.05388" lon="6.4031">
        <ele>2431.5</ele>
        <time>2013-05-05T08:28:20Z</time>
      </trkpt>
      <trkpt lat="45.05383" lon="6.4031">
        <ele>2430.8</ele>
        <time>2013-05-05T08:28:47Z</time>
      </trkpt>
      <trkpt lat="45.05379" lon="6.40313">
        <ele>2430.2</ele>
        <time>2013-05-05T08:28:48Z</time>
      </trkpt>
      <trkpt lat="45.05366" lon="6.40311">
        <ele>2428.2</ele>
        <time>2013-05-05T08:28:51Z</time>
      </trkpt>
      <trkpt lat="45.05361" lon="6.40313">
        <ele>2426.9</ele>
        <time>2013-05-05T08:28:52Z</time>
      </trkpt>
      <trkpt lat="45.05356" lon="6.40312">
        <ele>2426</ele>
        <time>2013-05-05T08:28:53Z</time>
      </trkpt>
      <trkpt lat="45.05351" lon="6.40315">
        <ele>2424.5</ele>
        <time>2013-05-05T08:28:54Z</time>
      </trkpt>
      <trkpt lat="45.05347" lon="6.4032">
        <ele>2423.3</ele>
        <time>2013-05-05T08:28:55Z</time>
      </trkpt>
      <trkpt lat="45.05341" lon="6.40319">
        <ele>2421.7</ele>
        <time>2013-05-05T08:28:56Z</time>
      </trkpt>
      <trkpt lat="45.05335" lon="6.40317">
        <ele>2420.5</ele>
        <time>2013-05-05T08:28:57Z</time>
      </trkpt>
      <trkpt lat="45.05327" lon="6.40315">
        <ele>2418.2</ele>
        <time>2013-05-05T08:28:59Z</time>
      </trkpt>
      <trkpt lat="45.05321" lon="6.40316">
        <ele>2415.9</ele>
        <time>2013-05-05T08:29:02Z</time>
      </trkpt>
      <trkpt lat="45.05313" lon="6.40317">
        <ele>2415.7</ele>
        <time>2013-05-05T08:29:05Z</time>
      </trkpt>
      <trkpt lat="45.05306" lon="6.40317">
        <ele>2415</ele>
        <time>2013-05-05T08:29:07Z</time>
      </trkpt>
      <trkpt lat="45.05299" lon="6.40315">
        <ele>2414.3</ele>
        <time>2013-05-05T08:29:09Z</time>
      </trkpt>
      <trkpt lat="45.05292" lon="6.40312">
        <ele>2413.6</ele>
        <time>2013-05-05T08:29:11Z</time>
      </trkpt>
      <trkpt lat="45.05285" lon="6.40313">
        <ele>2412.8</ele>
        <time>2013-05-05T08:29:13Z</time>
      </trkpt>
      <trkpt lat="45.05279" lon="6.4032">
        <ele>2411.9</ele>
        <time>2013-05-05T08:29:15Z</time>
      </trkpt>
      <trkpt lat="45.05271" lon="6.40317">
        <ele>2409</ele>
        <time>2013-05-05T08:29:18Z</time>
      </trkpt>
      <trkpt lat="45.05267" lon="6.40323">
        <ele>2408</ele>
        <time>2013-05-05T08:29:20Z</time>
      </trkpt>
      <trkpt lat="45.05261" lon="6.40331">
        <ele>2406.9</ele>
        <time>2013-05-05T08:29:22Z</time>
      </trkpt>
      <trkpt lat="45.05253" lon="6.40332">
        <ele>2405.5</ele>
        <time>2013-05-05T08:29:24Z</time>
      </trkpt>
      <trkpt lat="45.05248" lon="6.40341">
        <ele>2403.8</ele>
        <time>2013-05-05T08:29:26Z</time>
      </trkpt>
      <trkpt lat="45.05244" lon="6.40349">
        <ele>2394.7</ele>
        <time>2013-05-05T08:30:08Z</time>
      </trkpt>
      <trkpt lat="45.05244" lon="6.40355">
        <ele>2394.7</ele>
        <time>2013-05-05T08:30:09Z</time>
      </trkpt>
      <trkpt lat="45.05244" lon="6.40362">
        <ele>2394.8</ele>
        <time>2013-05-05T08:30:10Z</time>
      </trkpt>
      <trkpt lat="45.05243" lon="6.40372">
        <ele>2394.8</ele>
        <time>2013-05-05T08:30:11Z</time>
      </trkpt>
      <trkpt lat="45.05243" lon="6.40383">
        <ele>2393.5</ele>
        <time>2013-05-05T08:30:12Z</time>
      </trkpt>
      <trkpt lat="45.05241" lon="6.40394">
        <ele>2392.6</ele>
        <time>2013-05-05T08:30:13Z</time>
      </trkpt>
      <trkpt lat="45.05241" lon="6.40404">
        <ele>2391.5</ele>
        <time>2013-05-05T08:30:14Z</time>
      </trkpt>
      <trkpt lat="45.05241" lon="6.40413">
        <ele>2390.7</ele>
        <time>2013-05-05T08:30:15Z</time>
      </trkpt>
      <trkpt lat="45.05241" lon="6.40421">
        <ele>2390.1</ele>
        <time>2013-05-05T08:30:16Z</time>
      </trkpt>
      <trkpt lat="45.05241" lon="6.40428">
        <ele>2389.4</ele>
        <time>2013-05-05T08:30:17Z</time>
      </trkpt>
      <trkpt lat="45.0524" lon="6.4044">
        <ele>2388.2</ele>
        <time>2013-05-05T08:30:19Z</time>
      </trkpt>
      <trkpt lat="45.05237" lon="6.40449">
        <ele>2387.1</ele>
        <time>2013-05-05T08:30:22Z</time>
      </trkpt>
      <trkpt lat="45.0523" lon="6.40454">
        <ele>2386.5</ele>
        <time>2013-05-05T08:30:24Z</time>
      </trkpt>
      <trkpt lat="45.05225" lon="6.40455">
        <ele>2386.2</ele>
        <time>2013-05-05T08:30:25Z</time>
      </trkpt>
      <trkpt lat="45.05221" lon="6.4046">
        <ele>2385.8</ele>
        <time>2013-05-05T08:30:26Z</time>
      </trkpt>
      <trkpt lat="45.05219" lon="6.40466">
        <ele>2385.5</ele>
        <time>2013-05-05T08:30:27Z</time>
      </trkpt>
      <trkpt lat="45.05217" lon="6.40473">
        <ele>2385.3</ele>
        <time>2013-05-05T08:30:28Z</time>
      </trkpt>
      <trkpt lat="45.05215" lon="6.4048">
        <ele>2384.7</ele>
        <time>2013-05-05T08:30:29Z</time>
      </trkpt>
      <trkpt lat="45.0521" lon="6.40484">
        <ele>2384.3</ele>
        <time>2013-05-05T08:30:30Z</time>
      </trkpt>
      <trkpt lat="45.05206" lon="6.40488">
        <ele>2382.7</ele>
        <time>2013-05-05T08:30:31Z</time>
      </trkpt>
      <trkpt lat="45.05203" lon="6.40495">
        <ele>2381.6</ele>
        <time>2013-05-05T08:30:32Z</time>
      </trkpt>
      <trkpt lat="45.05201" lon="6.40503">
        <ele>2380.6</ele>
        <time>2013-05-05T08:30:33Z</time>
      </trkpt>
      <trkpt lat="45.05197" lon="6.40509">
        <ele>2379.9</ele>
        <time>2013-05-05T08:30:34Z</time>
      </trkpt>
      <trkpt lat="45.05193" lon="6.40514">
        <ele>2379.4</ele>
        <time>2013-05-05T08:30:35Z</time>
      </trkpt>
      <trkpt lat="45.05191" lon="6.40521">
        <ele>2378.5</ele>
        <time>2013-05-05T08:30:36Z</time>
      </trkpt>
      <trkpt lat="45.05189" lon="6.40528">
        <ele>2377.8</ele>
        <time>2013-05-05T08:30:37Z</time>
      </trkpt>
      <trkpt lat="45.05185" lon="6.40532">
        <ele>2376.9</ele>
        <time>2013-05-05T08:30:38Z</time>
      </trkpt>
      <trkpt lat="45.05181" lon="6.40534">
        <ele>2376.3</ele>
        <time>2013-05-05T08:30:39Z</time>
      </trkpt>
      <trkpt lat="45.05172" lon="6.40536">
        <ele>2374.8</ele>
        <time>2013-05-05T08:30:41Z</time>
      </trkpt>
      <trkpt lat="45.05164" lon="6.40535">
        <ele>2371.1</ele>
        <time>2013-05-05T08:30:47Z</time>
      </trkpt>
      <trkpt lat="45.05159" lon="6.40538">
        <ele>2370.1</ele>
        <time>2013-05-05T08:32:27Z</time>
      </trkpt>
      <trkpt lat="45.05157" lon="6.40543">
        <ele>2370.1</ele>
        <time>2013-05-05T08:32:28Z</time>
      </trkpt>
      <trkpt lat="45.05152" lon="6.40553">
        <ele>2369.2</ele>
        <time>2013-05-05T08:32:30Z</time>
      </trkpt>
      <trkpt lat="45.0515" lon="6.4056">
        <ele>2368.5</ele>
        <time>2013-05-05T08:32:31Z</time>
      </trkpt>
      <trkpt lat="45.05146" lon="6.40565">
        <ele>2366.6</ele>
        <time>2013-05-05T08:32:32Z</time>
      </trkpt>
      <trkpt lat="45.05143" lon="6.40572">
        <ele>2365.1</ele>
        <time>2013-05-05T08:32:33Z</time>
      </trkpt>
      <trkpt lat="45.05141" lon="6.4058">
        <ele>2362.9</ele>
        <time>2013-05-05T08:32:34Z</time>
      </trkpt>
      <trkpt lat="45.05136" lon="6.40585">
        <ele>2361.2</ele>
        <time>2013-05-05T08:32:35Z</time>
      </trkpt>
      <trkpt lat="45.05131" lon="6.40588">
        <ele>2359.9</ele>
        <time>2013-05-05T08:32:36Z</time>
      </trkpt>
      <trkpt lat="45.05127" lon="6.40593">
        <ele>2357.4</ele>
        <time>2013-05-05T08:32:37Z</time>
      </trkpt>
      <trkpt lat="45.05125" lon="6.40601">
        <ele>2355.5</ele>
        <time>2013-05-05T08:32:38Z</time>
      </trkpt>
      <trkpt lat="45.05121" lon="6.40607">
        <ele>2353.3</ele>
        <time>2013-05-05T08:32:39Z</time>
      </trkpt>
      <trkpt lat="45.05116" lon="6.40609">
        <ele>2351.7</ele>
        <time>2013-05-05T08:32:40Z</time>
      </trkpt>
      <trkpt lat="45.05111" lon="6.4061">
        <ele>2350.6</ele>
        <time>2013-05-05T08:32:41Z</time>
      </trkpt>
      <trkpt lat="45.05104" lon="6.40616">
        <ele>2346.4</ele>
        <time>2013-05-05T08:32:43Z</time>
      </trkpt>
      <trkpt lat="45.05101" lon="6.40622">
        <ele>2345.1</ele>
        <time>2013-05-05T08:32:44Z</time>
      </trkpt>
      <trkpt lat="45.05097" lon="6.40625">
        <ele>2344.2</ele>
        <time>2013-05-05T08:32:45Z</time>
      </trkpt>
      <trkpt lat="45.05088" lon="6.40627">
        <ele>2341.1</ele>
        <time>2013-05-05T08:32:47Z</time>
      </trkpt>
      <trkpt lat="45.05083" lon="6.40633">
        <ele>2338.8</ele>
        <time>2013-05-05T08:32:49Z</time>
      </trkpt>
      <trkpt lat="45.05083" lon="6.40643">
        <ele>2336.3</ele>
        <time>2013-05-05T08:32:51Z</time>
      </trkpt>
      <trkpt lat="45.05086" lon="6.40653">
        <ele>2333.8</ele>
        <time>2013-05-05T08:32:53Z</time>
      </trkpt>
      <trkpt lat="45.05082" lon="6.40662">
        <ele>2331.5</ele>
        <time>2013-05-05T08:32:56Z</time>
      </trkpt>
      <trkpt lat="45.05075" lon="6.40667">
        <ele>2330.2</ele>
        <time>2013-05-05T08:32:59Z</time>
      </trkpt>
      <trkpt lat="45.0507" lon="6.40662">
        <ele>2328.3</ele>
        <time>2013-05-05T08:33:01Z</time>
      </trkpt>
      <trkpt lat="45.05061" lon="6.4066">
        <ele>2319.5</ele>
        <time>2013-05-05T08:33:27Z</time>
      </trkpt>
      <trkpt lat="45.05054" lon="6.40663">
        <ele>2319.5</ele>
        <time>2013-05-05T08:33:44Z</time>
      </trkpt>
      <trkpt lat="45.05052" lon="6.40668">
        <ele>2319.3</ele>
        <time>2013-05-05T08:33:45Z</time>
      </trkpt>
      <trkpt lat="45.05044" lon="6.40665">
        <ele>2318.2</ele>
        <time>2013-05-05T08:33:47Z</time>
      </trkpt>
      <trkpt lat="45.05035" lon="6.40667">
        <ele>2313.3</ele>
        <time>2013-05-05T08:33:50Z</time>
      </trkpt>
      <trkpt lat="45.05029" lon="6.40672">
        <ele>2311.7</ele>
        <time>2013-05-05T08:33:52Z</time>
      </trkpt>
      <trkpt lat="45.05021" lon="6.40676">
        <ele>2305.6</ele>
        <time>2013-05-05T08:33:55Z</time>
      </trkpt>
      <trkpt lat="45.05016" lon="6.4068">
        <ele>2302.7</ele>
        <time>2013-05-05T08:33:57Z</time>
      </trkpt>
      <trkpt lat="45.05009" lon="6.40685">
        <ele>2296.4</ele>
        <time>2013-05-05T08:34:00Z</time>
      </trkpt>
      <trkpt lat="45.05006" lon="6.40693">
        <ele>2293.5</ele>
        <time>2013-05-05T08:34:02Z</time>
      </trkpt>
      <trkpt lat="45.04998" lon="6.40692">
        <ele>2291.5</ele>
        <time>2013-05-05T08:34:04Z</time>
      </trkpt>
      <trkpt lat="45.04994" lon="6.40701">
        <ele>2286.9</ele>
        <time>2013-05-05T08:34:07Z</time>
      </trkpt>
      <trkpt lat="45.04987" lon="6.40706">
        <ele>2282</ele>
        <time>2013-05-05T08:34:10Z</time>
      </trkpt>
      <trkpt lat="45.04985" lon="6.40718">
        <ele>2268.2</ele>
        <time>2013-05-05T08:35:12Z</time>
      </trkpt>
      <trkpt lat="45.04985" lon="6.4072">
        <ele>2268.4</ele>
        <time>2013-05-05T08:35:13Z</time>
      </trkpt>
      <trkpt lat="45.04977" lon="6.40738">
        <ele>2258.2</ele>
        <time>2013-05-05T08:35:25Z</time>
      </trkpt>
      <trkpt lat="45.0497" lon="6.40743">
        <ele>2255.3</ele>
        <time>2013-05-05T08:35:29Z</time>
      </trkpt>
      <trkpt lat="45.04964" lon="6.4075">
        <ele>2248</ele>
        <time>2013-05-05T08:35:33Z</time>
      </trkpt>
      <trkpt lat="45.04959" lon="6.40757">
        <ele>2243.6</ele>
        <time>2013-05-05T08:35:36Z</time>
      </trkpt>
      <trkpt lat="45.04959" lon="6.40767">
        <ele>2240.5</ele>
        <time>2013-05-05T08:35:38Z</time>
      </trkpt>
      <trkpt lat="45.04952" lon="6.40768">
        <ele>2238</ele>
        <time>2013-05-05T08:35:40Z</time>
      </trkpt>
      <trkpt lat="45.04946" lon="6.4077">
        <ele>2232.8</ele>
        <time>2013-05-05T08:35:43Z</time>
      </trkpt>
      <trkpt lat="45.04938" lon="6.40774">
        <ele>2226.3</ele>
        <time>2013-05-05T08:35:47Z</time>
      </trkpt>
      <trkpt lat="45.0494" lon="6.40762">
        <ele>2216.4</ele>
        <time>2013-05-05T08:36:57Z</time>
      </trkpt>
      <trkpt lat="45.0494" lon="6.40762">
        <ele>2216.5</ele>
        <time>2013-05-05T08:36:58Z</time>
      </trkpt>
      <trkpt lat="45.04934" lon="6.40782">
        <ele>2210.3</ele>
        <time>2013-05-05T08:37:28Z</time>
      </trkpt>
      <trkpt lat="45.04927" lon="6.40789">
        <ele>2202.3</ele>
        <time>2013-05-05T08:37:34Z</time>
      </trkpt>
      <trkpt lat="45.04921" lon="6.40785">
        <ele>2198.8</ele>
        <time>2013-05-05T08:37:37Z</time>
      </trkpt>
      <trkpt lat="45.04915" lon="6.40791">
        <ele>2195.1</ele>
        <time>2013-05-05T08:37:40Z</time>
      </trkpt>
      <trkpt lat="45.04908" lon="6.40798">
        <ele>2190</ele>
        <time>2013-05-05T08:37:44Z</time>
      </trkpt>
      <trkpt lat="45.04902" lon="6.40803">
        <ele>2184.6</ele>
        <time>2013-05-05T08:37:47Z</time>
      </trkpt>
      <trkpt lat="45.04894" lon="6.4081">
        <ele>2172.8</ele>
        <time>2013-05-05T08:37:58Z</time>
      </trkpt>
      <trkpt lat="45.04889" lon="6.40819">
        <ele>2171.4</ele>
        <time>2013-05-05T08:38:09Z</time>
      </trkpt>
      <trkpt lat="45.04889" lon="6.4082">
        <ele>2171.4</ele>
        <time>2013-05-05T08:38:10Z</time>
      </trkpt>
      <trkpt lat="45.04875" lon="6.40825">
        <ele>2166.8</ele>
        <time>2013-05-05T08:38:43Z</time>
      </trkpt>
      <trkpt lat="45.04873" lon="6.40833">
        <ele>2165.3</ele>
        <time>2013-05-05T08:38:45Z</time>
      </trkpt>
      <trkpt lat="45.04864" lon="6.40831">
        <ele>2161.9</ele>
        <time>2013-05-05T08:38:48Z</time>
      </trkpt>
      <trkpt lat="45.04856" lon="6.40835">
        <ele>2157.8</ele>
        <time>2013-05-05T08:38:51Z</time>
      </trkpt>
      <trkpt lat="45.0485" lon="6.40828">
        <ele>2153.9</ele>
        <time>2013-05-05T08:38:53Z</time>
      </trkpt>
      <trkpt lat="45.04845" lon="6.40834">
        <ele>2150.4</ele>
        <time>2013-05-05T08:38:55Z</time>
      </trkpt>
      <trkpt lat="45.04842" lon="6.40843">
        <ele>2147.9</ele>
        <time>2013-05-05T08:38:57Z</time>
      </trkpt>
      <trkpt lat="45.04834" lon="6.40844">
        <ele>2144.3</ele>
        <time>2013-05-05T08:39:00Z</time>
      </trkpt>
      <trkpt lat="45.04829" lon="6.40853">
        <ele>2139.1</ele>
        <time>2013-05-05T08:39:04Z</time>
      </trkpt>
      <trkpt lat="45.0482" lon="6.40853">
        <ele>2133.4</ele>
        <time>2013-05-05T08:39:12Z</time>
      </trkpt>
      <trkpt lat="45.04819" lon="6.40854">
        <ele>2133.6</ele>
        <time>2013-05-05T08:39:13Z</time>
      </trkpt>
      <trkpt lat="45.0481" lon="6.4087">
        <ele>2130.6</ele>
        <time>2013-05-05T08:39:38Z</time>
      </trkpt>
      <trkpt lat="45.04805" lon="6.4088">
        <ele>2129</ele>
        <time>2013-05-05T08:39:52Z</time>
      </trkpt>
      <trkpt lat="45.04797" lon="6.40874">
        <ele>2128.8</ele>
        <time>2013-05-05T08:39:55Z</time>
      </trkpt>
      <trkpt lat="45.04792" lon="6.40883">
        <ele>2126.2</ele>
        <time>2013-05-05T08:39:58Z</time>
      </trkpt>
      <trkpt lat="45.04784" lon="6.40882">
        <ele>2123.1</ele>
        <time>2013-05-05T08:40:01Z</time>
      </trkpt>
      <trkpt lat="45.04781" lon="6.40893">
        <ele>2116</ele>
        <time>2013-05-05T08:41:30Z</time>
      </trkpt>
      <trkpt lat="45.04779" lon="6.40896">
        <ele>2116.6</ele>
        <time>2013-05-05T08:41:31Z</time>
      </trkpt>
      <trkpt lat="45.04773" lon="6.40905">
        <ele>2116.5</ele>
        <time>2013-05-05T08:41:33Z</time>
      </trkpt>
      <trkpt lat="45.04769" lon="6.40909">
        <ele>2116.1</ele>
        <time>2013-05-05T08:41:34Z</time>
      </trkpt>
      <trkpt lat="45.04764" lon="6.40909">
        <ele>2115.8</ele>
        <time>2013-05-05T08:41:35Z</time>
      </trkpt>
      <trkpt lat="45.04759" lon="6.40912">
        <ele>2115.1</ele>
        <time>2013-05-05T08:41:36Z</time>
      </trkpt>
      <trkpt lat="45.04756" lon="6.40918">
        <ele>2114.7</ele>
        <time>2013-05-05T08:41:37Z</time>
      </trkpt>
      <trkpt lat="45.04752" lon="6.40923">
        <ele>2113.5</ele>
        <time>2013-05-05T08:41:38Z</time>
      </trkpt>
      <trkpt lat="45.04748" lon="6.40926">
        <ele>2112.6</ele>
        <time>2013-05-05T08:41:39Z</time>
      </trkpt>
      <trkpt lat="45.04742" lon="6.40928">
        <ele>2111.2</ele>
        <time>2013-05-05T08:41:40Z</time>
      </trkpt>
      <trkpt lat="45.04736" lon="6.40931">
        <ele>2110.2</ele>
        <time>2013-05-05T08:41:41Z</time>
      </trkpt>
      <trkpt lat="45.04731" lon="6.40935">
        <ele>2109.4</ele>
        <time>2013-05-05T08:41:42Z</time>
      </trkpt>
      <trkpt lat="45.04726" lon="6.40941">
        <ele>2108.1</ele>
        <time>2013-05-05T08:41:43Z</time>
      </trkpt>
      <trkpt lat="45.04723" lon="6.40949">
        <ele>2107.1</ele>
        <time>2013-05-05T08:41:44Z</time>
      </trkpt>
      <trkpt lat="45.0472" lon="6.40957">
        <ele>2105.5</ele>
        <time>2013-05-05T08:41:45Z</time>
      </trkpt>
      <trkpt lat="45.04719" lon="6.40965">
        <ele>2104.3</ele>
        <time>2013-05-05T08:41:46Z</time>
      </trkpt>
      <trkpt lat="45.04717" lon="6.40972">
        <ele>2103.4</ele>
        <time>2013-05-05T08:41:47Z</time>
      </trkpt>
      <trkpt lat="45.04716" lon="6.40979">
        <ele>2102.9</ele>
        <time>2013-05-05T08:41:48Z</time>
      </trkpt>
      <trkpt lat="45.04715" lon="6.4099">
        <ele>2101.8</ele>
        <time>2013-05-05T08:41:50Z</time>
      </trkpt>
      <trkpt lat="45.04712" lon="6.40998">
        <ele>2100.6</ele>
        <time>2013-05-05T08:41:52Z</time>
      </trkpt>
      <trkpt lat="45.04709" lon="6.41007">
        <ele>2099.8</ele>
        <time>2013-05-05T08:41:54Z</time>
      </trkpt>
      <trkpt lat="45.04705" lon="6.41016">
        <ele>2098.9</ele>
        <time>2013-05-05T08:41:56Z</time>
      </trkpt>
      <trkpt lat="45.04698" lon="6.41023">
        <ele>2098.3</ele>
        <time>2013-05-05T08:41:58Z</time>
      </trkpt>
      <trkpt lat="45.04689" lon="6.41024">
        <ele>2096.9</ele>
        <time>2013-05-05T08:42:00Z</time>
      </trkpt>
      <trkpt lat="45.04683" lon="6.41033">
        <ele>2095.9</ele>
        <time>2013-05-05T08:42:02Z</time>
      </trkpt>
      <trkpt lat="45.04675" lon="6.41036">
        <ele>2094.3</ele>
        <time>2013-05-05T08:42:04Z</time>
      </trkpt>
      <trkpt lat="45.04671" lon="6.41044">
        <ele>2092.6</ele>
        <time>2013-05-05T08:42:06Z</time>
      </trkpt>
      <trkpt lat="45.04665" lon="6.41051">
        <ele>2091.5</ele>
        <time>2013-05-05T08:42:08Z</time>
      </trkpt>
      <trkpt lat="45.0466" lon="6.41059">
        <ele>2089.2</ele>
        <time>2013-05-05T08:42:10Z</time>
      </trkpt>
      <trkpt lat="45.04657" lon="6.41064">
        <ele>2088.2</ele>
        <time>2013-05-05T08:42:11Z</time>
      </trkpt>
      <trkpt lat="45.04649" lon="6.41069">
        <ele>2087</ele>
        <time>2013-05-05T08:42:13Z</time>
      </trkpt>
      <trkpt lat="45.04641" lon="6.41071">
        <ele>2085.5</ele>
        <time>2013-05-05T08:42:15Z</time>
      </trkpt>
      <trkpt lat="45.04633" lon="6.41071">
        <ele>2080.6</ele>
        <time>2013-05-05T08:42:44Z</time>
      </trkpt>
      <trkpt lat="45.04632" lon="6.41073">
        <ele>2080.4</ele>
        <time>2013-05-05T08:42:45Z</time>
      </trkpt>
      <trkpt lat="45.04625" lon="6.41079">
        <ele>2080</ele>
        <time>2013-05-05T08:42:47Z</time>
      </trkpt>
      <trkpt lat="45.0462" lon="6.41082">
        <ele>2079.7</ele>
        <time>2013-05-05T08:42:48Z</time>
      </trkpt>
      <trkpt lat="45.04616" lon="6.41085">
        <ele>2079.1</ele>
        <time>2013-05-05T08:42:49Z</time>
      </trkpt>
      <trkpt lat="45.04612" lon="6.41095">
        <ele>2078.4</ele>
        <time>2013-05-05T08:42:51Z</time>
      </trkpt>
      <trkpt lat="45.04609" lon="6.41101">
        <ele>2077.7</ele>
        <time>2013-05-05T08:42:52Z</time>
      </trkpt>
      <trkpt lat="45.04604" lon="6.41106">
        <ele>2077.2</ele>
        <time>2013-05-05T08:42:53Z</time>
      </trkpt>
      <trkpt lat="45.04599" lon="6.4111">
        <ele>2075.3</ele>
        <time>2013-05-05T08:42:54Z</time>
      </trkpt>
      <trkpt lat="45.04596" lon="6.4112">
        <ele>2072.5</ele>
        <time>2013-05-05T08:42:56Z</time>
      </trkpt>
      <trkpt lat="45.04596" lon="6.41127">
        <ele>2071.4</ele>
        <time>2013-05-05T08:42:57Z</time>
      </trkpt>
      <trkpt lat="45.04592" lon="6.41134">
        <ele>2070.7</ele>
        <time>2013-05-05T08:42:58Z</time>
      </trkpt>
      <trkpt lat="45.04588" lon="6.41138">
        <ele>2068.6</ele>
        <time>2013-05-05T08:42:59Z</time>
      </trkpt>
      <trkpt lat="45.04582" lon="6.41144">
        <ele>2064.8</ele>
        <time>2013-05-05T08:43:01Z</time>
      </trkpt>
      <trkpt lat="45.04578" lon="6.41148">
        <ele>2063.1</ele>
        <time>2013-05-05T08:43:02Z</time>
      </trkpt>
      <trkpt lat="45.04574" lon="6.41152">
        <ele>2061.9</ele>
        <time>2013-05-05T08:43:03Z</time>
      </trkpt>
      <trkpt lat="45.0457" lon="6.41156">
        <ele>2061.1</ele>
        <time>2013-05-05T08:43:04Z</time>
      </trkpt>
      <trkpt lat="45.04564" lon="6.41163">
        <ele>2059.4</ele>
        <time>2013-05-05T08:43:06Z</time>
      </trkpt>
      <trkpt lat="45.04558" lon="6.4117">
        <ele>2057.8</ele>
        <time>2013-05-05T08:43:08Z</time>
      </trkpt>
      <trkpt lat="45.04552" lon="6.41179">
        <ele>2056.8</ele>
        <time>2013-05-05T08:43:10Z</time>
      </trkpt>
      <trkpt lat="45.04549" lon="6.41185">
        <ele>2056</ele>
        <time>2013-05-05T08:43:11Z</time>
      </trkpt>
      <trkpt lat="45.04545" lon="6.41189">
        <ele>2055.4</ele>
        <time>2013-05-05T08:43:12Z</time>
      </trkpt>
      <trkpt lat="45.04541" lon="6.41194">
        <ele>2054.2</ele>
        <time>2013-05-05T08:43:13Z</time>
      </trkpt>
      <trkpt lat="45.04537" lon="6.41198">
        <ele>2053.3</ele>
        <time>2013-05-05T08:43:14Z</time>
      </trkpt>
      <trkpt lat="45.04533" lon="6.41203">
        <ele>2052.2</ele>
        <time>2013-05-05T08:43:15Z</time>
      </trkpt>
      <trkpt lat="45.04526" lon="6.41211">
        <ele>2050.9</ele>
        <time>2013-05-05T08:43:17Z</time>
      </trkpt>
      <trkpt lat="45.04523" lon="6.41216">
        <ele>2050.2</ele>
        <time>2013-05-05T08:43:18Z</time>
      </trkpt>
      <trkpt lat="45.04522" lon="6.41227">
        <ele>2048.3</ele>
        <time>2013-05-05T08:43:20Z</time>
      </trkpt>
      <trkpt lat="45.04523" lon="6.41234">
        <ele>2047.3</ele>
        <time>2013-05-05T08:43:21Z</time>
      </trkpt>
      <trkpt lat="45.04523" lon="6.41241">
        <ele>2045.5</ele>
        <time>2013-05-05T08:43:22Z</time>
      </trkpt>
      <trkpt lat="45.04525" lon="6.4125">
        <ele>2044.2</ele>
        <time>2013-05-05T08:43:23Z</time>
      </trkpt>
      <trkpt lat="45.04526" lon="6.41261">
        <ele>2043.2</ele>
        <time>2013-05-05T08:43:24Z</time>
      </trkpt>
      <trkpt lat="45.04525" lon="6.41272">
        <ele>2041.4</ele>
        <time>2013-05-05T08:43:25Z</time>
      </trkpt>
      <trkpt lat="45.04523" lon="6.41283">
        <ele>2040.1</ele>
        <time>2013-05-05T08:43:26Z</time>
      </trkpt>
      <trkpt lat="45.0452" lon="6.41292">
        <ele>2037.8</ele>
        <time>2013-05-05T08:43:27Z</time>
      </trkpt>
      <trkpt lat="45.04517" lon="6.413">
        <ele>2036.1</ele>
        <time>2013-05-05T08:43:28Z</time>
      </trkpt>
      <trkpt lat="45.04514" lon="6.41307">
        <ele>2034.8</ele>
        <time>2013-05-05T08:43:29Z</time>
      </trkpt>
      <trkpt lat="45.04509" lon="6.41314">
        <ele>2032.5</ele>
        <time>2013-05-05T08:43:31Z</time>
      </trkpt>
      <trkpt lat="45.04506" lon="6.41324">
        <ele>2029.5</ele>
        <time>2013-05-05T08:43:34Z</time>
      </trkpt>
      <trkpt lat="45.04503" lon="6.41335">
        <ele>2028.1</ele>
        <time>2013-05-05T08:43:37Z</time>
      </trkpt>
      <trkpt lat="45.04501" lon="6.41343">
        <ele>2027.6</ele>
        <time>2013-05-05T08:43:39Z</time>
      </trkpt>
      <trkpt lat="45.04499" lon="6.41352">
        <ele>2026.9</ele>
        <time>2013-05-05T08:43:41Z</time>
      </trkpt>
      <trkpt lat="45.04496" lon="6.4136">
        <ele>2026.1</ele>
        <time>2013-05-05T08:43:43Z</time>
      </trkpt>
      <trkpt lat="45.04493" lon="6.41369">
        <ele>2025.8</ele>
        <time>2013-05-05T08:43:45Z</time>
      </trkpt>
      <trkpt lat="45.04491" lon="6.41377">
        <ele>2025.2</ele>
        <time>2013-05-05T08:43:48Z</time>
      </trkpt>
      <trkpt lat="45.0449" lon="6.41381">
        <ele>2024.6</ele>
        <time>2013-05-05T08:43:49Z</time>
      </trkpt>
      <trkpt lat="45.04484" lon="6.41397">
        <ele>2022.9</ele>
        <time>2013-05-05T08:43:54Z</time>
      </trkpt>
      <trkpt lat="45.04479" lon="6.41404">
        <ele>2022.4</ele>
        <time>2013-05-05T08:43:57Z</time>
      </trkpt>
      <trkpt lat="45.04476" lon="6.41413">
        <ele>2022.3</ele>
        <time>2013-05-05T08:44:00Z</time>
      </trkpt>
      <trkpt lat="45.04472" lon="6.41423">
        <ele>2022</ele>
        <time>2013-05-05T08:44:03Z</time>
      </trkpt>
      <trkpt lat="45.04466" lon="6.41432">
        <ele>2021.1</ele>
        <time>2013-05-05T08:44:06Z</time>
      </trkpt>
      <trkpt lat="45.04461" lon="6.41442">
        <ele>2021.1</ele>
        <time>2013-05-05T08:44:09Z</time>
      </trkpt>
      <trkpt lat="45.04456" lon="6.41449">
        <ele>2020.2</ele>
        <time>2013-05-05T08:44:12Z</time>
      </trkpt>
      <trkpt lat="45.04451" lon="6.41459">
        <ele>2019.5</ele>
        <time>2013-05-05T08:44:15Z</time>
      </trkpt>
      <trkpt lat="45.04446" lon="6.4147">
        <ele>2019.5</ele>
        <time>2013-05-05T08:44:18Z</time>
      </trkpt>
      <trkpt lat="45.04443" lon="6.41478">
        <ele>2018.6</ele>
        <time>2013-05-05T08:44:20Z</time>
      </trkpt>
      <trkpt lat="45.0444" lon="6.41489">
        <ele>2017.9</ele>
        <time>2013-05-05T08:44:22Z</time>
      </trkpt>
      <trkpt lat="45.0444" lon="6.41501">
        <ele>2017.1</ele>
        <time>2013-05-05T08:44:24Z</time>
      </trkpt>
      <trkpt lat="45.0444" lon="6.41511">
        <ele>2016.3</ele>
        <time>2013-05-05T08:44:26Z</time>
      </trkpt>
      <trkpt lat="45.0444" lon="6.41523">
        <ele>2014.7</ele>
        <time>2013-05-05T08:44:30Z</time>
      </trkpt>
      <trkpt lat="45.04439" lon="6.41535">
        <ele>2013.2</ele>
        <time>2013-05-05T08:44:37Z</time>
      </trkpt>
      <trkpt lat="45.04439" lon="6.41547">
        <ele>2014</ele>
        <time>2013-05-05T08:44:46Z</time>
      </trkpt>
      <trkpt lat="45.04433" lon="6.41554">
        <ele>2013.9</ele>
        <time>2013-05-05T08:44:50Z</time>
      </trkpt>
      <trkpt lat="45.04431" lon="6.41553">
        <ele>2014.2</ele>
        <time>2013-05-05T08:44:51Z</time>
      </trkpt>
      <trkpt lat="45.0442" lon="6.41557">
        <ele>2012.7</ele>
        <time>2013-05-05T08:44:54Z</time>
      </trkpt>
      <trkpt lat="45.04416" lon="6.41568">
        <ele>2011.7</ele>
        <time>2013-05-05T08:44:56Z</time>
      </trkpt>
      <trkpt lat="45.04414" lon="6.41577">
        <ele>2011.4</ele>
        <time>2013-05-05T08:44:58Z</time>
      </trkpt>
      <trkpt lat="45.04409" lon="6.41588">
        <ele>2009.6</ele>
        <time>2013-05-05T08:45:01Z</time>
      </trkpt>
      <trkpt lat="45.04405" lon="6.41597">
        <ele>2007</ele>
        <time>2013-05-05T08:45:06Z</time>
      </trkpt>
      <trkpt lat="45.044" lon="6.41602">
        <ele>2006.4</ele>
        <time>2013-05-05T08:45:08Z</time>
      </trkpt>
      <trkpt lat="45.04395" lon="6.41608">
        <ele>2006.2</ele>
        <time>2013-05-05T08:45:10Z</time>
      </trkpt>
      <trkpt lat="45.04387" lon="6.41608">
        <ele>2005.5</ele>
        <time>2013-05-05T08:45:12Z</time>
      </trkpt>
      <trkpt lat="45.04379" lon="6.41607">
        <ele>2004.5</ele>
        <time>2013-05-05T08:45:14Z</time>
      </trkpt>
      <trkpt lat="45.04378" lon="6.4162">
        <ele>1999.6</ele>
        <time>2013-05-05T08:45:56Z</time>
      </trkpt>
      <trkpt lat="45.04377" lon="6.41621">
        <ele>1999.8</ele>
        <time>2013-05-05T08:45:57Z</time>
      </trkpt>
      <trkpt lat="45.04379" lon="6.41641">
        <ele>2007.2</ele>
        <time>2013-05-05T08:46:22Z</time>
      </trkpt>
      <trkpt lat="45.04382" lon="6.41652">
        <ele>2008.3</ele>
        <time>2013-05-05T08:46:38Z</time>
      </trkpt>
      <trkpt lat="45.04376" lon="6.41661">
        <ele>2008.5</ele>
        <time>2013-05-05T08:47:35Z</time>
      </trkpt>
      <trkpt lat="45.04376" lon="6.41662">
        <ele>2008.6</ele>
        <time>2013-05-05T08:47:36Z</time>
      </trkpt>
      <trkpt lat="45.04363" lon="6.41673">
        <ele>2008.9</ele>
        <time>2013-05-05T08:47:58Z</time>
      </trkpt>
      <trkpt lat="45.04357" lon="6.41678">
        <ele>2008.4</ele>
        <time>2013-05-05T08:48:00Z</time>
      </trkpt>
      <trkpt lat="45.04351" lon="6.41683">
        <ele>2007.8</ele>
        <time>2013-05-05T08:48:02Z</time>
      </trkpt>
      <trkpt lat="45.04344" lon="6.41689">
        <ele>2007.8</ele>
        <time>2013-05-05T08:48:04Z</time>
      </trkpt>
      <trkpt lat="45.04337" lon="6.41696">
        <ele>2007.7</ele>
        <time>2013-05-05T08:48:06Z</time>
      </trkpt>
      <trkpt lat="45.04333" lon="6.417">
        <ele>2007</ele>
        <time>2013-05-05T08:48:07Z</time>
      </trkpt>
      <trkpt lat="45.0433" lon="6.41705">
        <ele>2006.6</ele>
        <time>2013-05-05T08:48:08Z</time>
      </trkpt>
      <trkpt lat="45.04323" lon="6.41712">
        <ele>2005.9</ele>
        <time>2013-05-05T08:48:10Z</time>
      </trkpt>
      <trkpt lat="45.04317" lon="6.41718">
        <ele>2005</ele>
        <time>2013-05-05T08:48:12Z</time>
      </trkpt>
      <trkpt lat="45.0431" lon="6.41725">
        <ele>2003.6</ele>
        <time>2013-05-05T08:48:15Z</time>
      </trkpt>
      <trkpt lat="45.04303" lon="6.41731">
        <ele>2001.6</ele>
        <time>2013-05-05T08:48:19Z</time>
      </trkpt>
      <trkpt lat="45.04296" lon="6.41738">
        <ele>2000.2</ele>
        <time>2013-05-05T08:48:22Z</time>
      </trkpt>
      <trkpt lat="45.04291" lon="6.41744">
        <ele>1999.4</ele>
        <time>2013-05-05T08:48:24Z</time>
      </trkpt>
      <trkpt lat="45.04286" lon="6.4175">
        <ele>1999</ele>
        <time>2013-05-05T08:48:26Z</time>
      </trkpt>
      <trkpt lat="45.04278" lon="6.41754">
        <ele>1998.6</ele>
        <time>2013-05-05T08:48:29Z</time>
      </trkpt>
      <trkpt lat="45.04276" lon="6.41746">
        <ele>1997.4</ele>
        <time>2013-05-05T08:48:31Z</time>
      </trkpt>
      <trkpt lat="45.04274" lon="6.41734">
        <ele>1995.4</ele>
        <time>2013-05-05T08:48:33Z</time>
      </trkpt>
      <trkpt lat="45.04273" lon="6.41722">
        <ele>1988.4</ele>
        <time>2013-05-05T08:48:52Z</time>
      </trkpt>
      <trkpt lat="45.04274" lon="6.41721">
        <ele>1988.3</ele>
        <time>2013-05-05T08:48:53Z</time>
      </trkpt>
      <trkpt lat="45.04281" lon="6.417">
        <ele>1988.3</ele>
        <time>2013-05-05T08:49:44Z</time>
      </trkpt>
      <trkpt lat="45.0428" lon="6.41712">
        <ele>1987.7</ele>
        <time>2013-05-05T08:50:36Z</time>
      </trkpt>
      <trkpt lat="45.0428" lon="6.41713">
        <ele>1988.1</ele>
        <time>2013-05-05T08:50:37Z</time>
      </trkpt>
    </trkseg>
  </trk>
</gpx>